<?xml version="1.0" encoding="UTF-8" standalone="no" ?>
<gpx xmlns="http://www.topografix.com/GPX/1/1" xmlns:xsi="http://www.w3.org/2001/XMLSchema-instance" xsi:schemaLocation="http://www.topografix.com/GPX/1/1 http://www.topografix.com/GPX/1/1/gpx.xsd" version="1.1" creator="VisuGPX - https://www.visugpx.com">
  <metadata>
    <name>80km St Hilaire le Vouhis édité par cth85.com          </name>
    <desc><![CDATA[Les Herbiers L’Aurière Mesnard
 Vendrennes => Mouchamps
A/d La Goussaie L’Oie
Ste Florence / Douet des Champs
Rouadan / Grissay / La Rabretière a/g
A/d Les Libaudières
Stop a/g et 1ère a/droite
=>Fougeré /Metairie du Bois
Stop en face Brenaudière a/d
La Grève  a/gauche 
=>Chantonnay 4 routes a/g
A/d Moulin D’Etourneau
La Marzelle / Les 3 Pigeons
Les Fournils La Sangle
St Germain / Sigournais a /g
La Plessée / La Gadebillière
Les Gornnières / La Pelltrie 
Rochetrejoux / La Jonchère
Les Herbiers
]]></desc>
  </metadata>
  <trk>
    <name><![CDATA[30-juin-80km-St-hilaire-le-vouhis on GPSies.com]]></name>
    <trkseg>
      <trkpt lat="46.8638" lon="-1.01023">
        <ele>116</ele>
        <time>2011-12-10T11:39:01Z</time>
      </trkpt>
      <trkpt lat="46.86384" lon="-1.01024">
        <ele>116</ele>
        <time>2011-12-10T11:39:02Z</time>
      </trkpt>
      <trkpt lat="46.86361" lon="-1.01206">
        <ele>119</ele>
        <time>2011-12-10T11:39:24Z</time>
      </trkpt>
      <trkpt lat="46.86356" lon="-1.0122">
        <ele>118</ele>
        <time>2011-12-10T11:39:26Z</time>
      </trkpt>
      <trkpt lat="46.86346" lon="-1.0123">
        <ele>118</ele>
        <time>2011-12-10T15:05:42Z</time>
      </trkpt>
      <trkpt lat="46.86345" lon="-1.01247">
        <ele>118</ele>
        <time>2011-12-10T11:39:30Z</time>
      </trkpt>
      <trkpt lat="46.86339" lon="-1.01252">
        <ele>118</ele>
        <time>2011-12-10T11:39:31Z</time>
      </trkpt>
      <trkpt lat="46.8633" lon="-1.01251">
        <ele>118</ele>
        <time>2011-12-10T11:39:33Z</time>
      </trkpt>
      <trkpt lat="46.86319" lon="-1.01309">
        <ele>116</ele>
        <time>2011-12-10T11:39:40Z</time>
      </trkpt>
      <trkpt lat="46.8631" lon="-1.01392">
        <ele>116</ele>
        <time>2011-12-10T11:39:50Z</time>
      </trkpt>
      <trkpt lat="46.86283" lon="-1.01574">
        <ele>116</ele>
        <time>2011-12-10T11:40:12Z</time>
      </trkpt>
      <trkpt lat="46.86289" lon="-1.01579">
        <ele>116</ele>
        <time>2011-12-10T11:40:13Z</time>
      </trkpt>
      <trkpt lat="46.86291" lon="-1.01591">
        <ele>116</ele>
        <time>2011-12-10T11:40:15Z</time>
      </trkpt>
      <trkpt lat="46.86286" lon="-1.016">
        <ele>116</ele>
        <time>2011-12-10T11:40:16Z</time>
      </trkpt>
      <trkpt lat="46.86281" lon="-1.01601">
        <ele>116</ele>
        <time>2011-12-10T11:40:17Z</time>
      </trkpt>
      <trkpt lat="46.86274" lon="-1.01594">
        <ele>116</ele>
        <time>2011-12-10T11:40:19Z</time>
      </trkpt>
      <trkpt lat="46.86274" lon="-1.01585">
        <ele>116</ele>
        <time>2011-12-10T11:40:20Z</time>
      </trkpt>
      <trkpt lat="46.86237" lon="-1.01576">
        <ele>116</ele>
        <time>2011-12-10T11:40:26Z</time>
      </trkpt>
      <trkpt lat="46.86223" lon="-1.01578">
        <ele>116</ele>
        <time>2011-12-10T11:40:29Z</time>
      </trkpt>
      <trkpt lat="46.86136" lon="-1.01694">
        <ele>112</ele>
        <time>2011-12-10T11:40:49Z</time>
      </trkpt>
      <trkpt lat="46.86144" lon="-1.01701">
        <ele>112</ele>
        <time>2011-12-10T11:40:51Z</time>
      </trkpt>
      <trkpt lat="46.86137" lon="-1.01733">
        <ele>115</ele>
        <time>2011-12-10T11:40:55Z</time>
      </trkpt>
      <trkpt lat="46.86125" lon="-1.01864">
        <ele>114</ele>
        <time>2011-12-10T11:41:11Z</time>
      </trkpt>
      <trkpt lat="46.861" lon="-1.01908">
        <ele>113</ele>
        <time>2011-12-10T11:41:17Z</time>
      </trkpt>
      <trkpt lat="46.86087" lon="-1.01916">
        <ele>113</ele>
        <time>2011-12-10T11:41:20Z</time>
      </trkpt>
      <trkpt lat="46.86088" lon="-1.01924">
        <ele>113</ele>
        <time>2011-12-10T11:41:21Z</time>
      </trkpt>
      <trkpt lat="46.86083" lon="-1.01936">
        <ele>113</ele>
        <time>2011-12-10T11:41:22Z</time>
      </trkpt>
      <trkpt lat="46.86075" lon="-1.01937">
        <ele>113</ele>
        <time>2011-12-10T11:41:24Z</time>
      </trkpt>
      <trkpt lat="46.86069" lon="-1.0193">
        <ele>113</ele>
        <time>2011-12-10T11:41:25Z</time>
      </trkpt>
      <trkpt lat="46.85974" lon="-1.01991">
        <ele>113</ele>
        <time>2011-12-10T11:41:43Z</time>
      </trkpt>
      <trkpt lat="46.85936" lon="-1.02037">
        <ele>113</ele>
        <time>2011-12-10T11:41:52Z</time>
      </trkpt>
      <trkpt lat="46.85914" lon="-1.02074">
        <ele>113</ele>
        <time>2011-12-10T11:41:58Z</time>
      </trkpt>
      <trkpt lat="46.85907" lon="-1.02092">
        <ele>113</ele>
        <time>2011-12-10T11:42:00Z</time>
      </trkpt>
      <trkpt lat="46.85902" lon="-1.02149">
        <ele>111</ele>
        <time>2011-12-10T11:42:07Z</time>
      </trkpt>
      <trkpt lat="46.85843" lon="-1.02256">
        <ele>110</ele>
        <time>2011-12-10T11:42:23Z</time>
      </trkpt>
      <trkpt lat="46.85846" lon="-1.02267">
        <ele>110</ele>
        <time>2011-12-10T11:42:25Z</time>
      </trkpt>
      <trkpt lat="46.85842" lon="-1.02274">
        <ele>110</ele>
        <time>2011-12-10T11:42:26Z</time>
      </trkpt>
      <trkpt lat="46.85862" lon="-1.02309">
        <ele>112</ele>
        <time>2011-12-10T11:42:31Z</time>
      </trkpt>
      <trkpt lat="46.85862" lon="-1.02309">
        <ele>112</ele>
        <time>2011-12-10T11:42:31Z</time>
      </trkpt>
      <trkpt lat="46.85941" lon="-1.02452">
        <ele>112</ele>
        <time>2011-12-10T11:42:53Z</time>
      </trkpt>
      <trkpt lat="46.85956" lon="-1.02458">
        <ele>112</ele>
        <time>2011-12-10T11:42:56Z</time>
      </trkpt>
      <trkpt lat="46.8596" lon="-1.02466">
        <ele>114</ele>
        <time>2011-12-10T11:42:57Z</time>
      </trkpt>
      <trkpt lat="46.85903" lon="-1.02529">
        <ele>112</ele>
        <time>2011-12-10T11:43:09Z</time>
      </trkpt>
      <trkpt lat="46.85903" lon="-1.02529">
        <ele>112</ele>
        <time>2011-12-10T11:43:09Z</time>
      </trkpt>
      <trkpt lat="46.85804" lon="-1.02642">
        <ele>109</ele>
        <time>2011-12-10T11:43:31Z</time>
      </trkpt>
      <trkpt lat="46.85799" lon="-1.02655">
        <ele>109</ele>
        <time>2011-12-10T11:43:33Z</time>
      </trkpt>
      <trkpt lat="46.85798" lon="-1.02686">
        <ele>109</ele>
        <time>2011-12-10T11:43:37Z</time>
      </trkpt>
      <trkpt lat="46.85825" lon="-1.02727">
        <ele>108</ele>
        <time>2011-12-10T11:43:44Z</time>
      </trkpt>
      <trkpt lat="46.85836" lon="-1.02773">
        <ele>108</ele>
        <time>2011-12-10T11:43:49Z</time>
      </trkpt>
      <trkpt lat="46.85836" lon="-1.02773">
        <ele>108</ele>
        <time>2011-12-10T11:43:49Z</time>
      </trkpt>
      <trkpt lat="46.8586" lon="-1.02936">
        <ele>109</ele>
        <time>2011-12-10T11:44:09Z</time>
      </trkpt>
      <trkpt lat="46.85888" lon="-1.03048">
        <ele>111</ele>
        <time>2011-12-10T11:44:23Z</time>
      </trkpt>
      <trkpt lat="46.85902" lon="-1.03152">
        <ele>111</ele>
        <time>2011-12-10T11:44:36Z</time>
      </trkpt>
      <trkpt lat="46.85959" lon="-1.03358">
        <ele>112</ele>
        <time>2011-12-10T11:45:02Z</time>
      </trkpt>
      <trkpt lat="46.85971" lon="-1.03384">
        <ele>112</ele>
        <time>2011-12-10T11:45:06Z</time>
      </trkpt>
      <trkpt lat="46.85877" lon="-1.03542">
        <ele>108</ele>
        <time>2011-12-10T11:45:31Z</time>
      </trkpt>
      <trkpt lat="46.85871" lon="-1.03554">
        <ele>107</ele>
        <time>2011-12-10T11:45:33Z</time>
      </trkpt>
      <trkpt lat="46.85867" lon="-1.0358">
        <ele>107</ele>
        <time>2011-12-10T11:45:36Z</time>
      </trkpt>
      <trkpt lat="46.85867" lon="-1.0358">
        <ele>107</ele>
        <time>2011-12-10T11:45:36Z</time>
      </trkpt>
      <trkpt lat="46.85856" lon="-1.03674">
        <ele>108</ele>
        <time>2011-12-10T11:45:47Z</time>
      </trkpt>
      <trkpt lat="46.8575" lon="-1.0362">
        <ele>105</ele>
        <time>2011-12-10T11:46:07Z</time>
      </trkpt>
      <trkpt lat="46.85701" lon="-1.03624">
        <ele>103</ele>
        <time>2011-12-10T11:46:15Z</time>
      </trkpt>
      <trkpt lat="46.85588" lon="-1.03658">
        <ele>102</ele>
        <time>2011-12-10T11:46:36Z</time>
      </trkpt>
      <trkpt lat="46.85588" lon="-1.0373">
        <ele>104</ele>
        <time>2011-12-10T11:46:44Z</time>
      </trkpt>
      <trkpt lat="46.85596" lon="-1.03805">
        <ele>105</ele>
        <time>2011-12-10T11:46:53Z</time>
      </trkpt>
      <trkpt lat="46.85509" lon="-1.04023">
        <ele>103</ele>
        <time>2011-12-10T11:47:33Z</time>
      </trkpt>
      <trkpt lat="46.85533" lon="-1.04045">
        <ele>103</ele>
        <time>2011-12-10T11:47:28Z</time>
      </trkpt>
      <trkpt lat="46.85533" lon="-1.04044">
        <ele>103</ele>
        <time>2011-12-10T11:47:28Z</time>
      </trkpt>
      <trkpt lat="46.85509" lon="-1.04023">
        <ele>103</ele>
        <time>2011-12-10T11:47:33Z</time>
      </trkpt>
      <trkpt lat="46.8543" lon="-1.0421">
        <ele>100</ele>
        <time>2011-12-10T11:47:59Z</time>
      </trkpt>
      <trkpt lat="46.8543" lon="-1.04221">
        <ele>100</ele>
        <time>2011-12-10T11:48:01Z</time>
      </trkpt>
      <trkpt lat="46.85619" lon="-1.04388">
        <ele>103</ele>
        <time>2011-12-10T11:48:39Z</time>
      </trkpt>
      <trkpt lat="46.85668" lon="-1.0443">
        <ele>105</ele>
        <time>2011-12-10T11:48:49Z</time>
      </trkpt>
      <trkpt lat="46.85695" lon="-1.04438">
        <ele>105</ele>
        <time>2011-12-10T11:48:54Z</time>
      </trkpt>
      <trkpt lat="46.85707" lon="-1.04438">
        <ele>105</ele>
        <time>2011-12-10T11:48:56Z</time>
      </trkpt>
      <trkpt lat="46.85715" lon="-1.0445">
        <ele>106</ele>
        <time>2011-12-10T11:48:58Z</time>
      </trkpt>
      <trkpt lat="46.85716" lon="-1.04462">
        <ele>109</ele>
        <time>2011-12-10T11:48:59Z</time>
      </trkpt>
      <trkpt lat="46.85732" lon="-1.04497">
        <ele>109</ele>
        <time>2011-12-10T11:49:04Z</time>
      </trkpt>
      <trkpt lat="46.85741" lon="-1.04553">
        <ele>107</ele>
        <time>2011-12-10T11:49:11Z</time>
      </trkpt>
      <trkpt lat="46.85742" lon="-1.04613">
        <ele>107</ele>
        <time>2011-12-10T11:49:18Z</time>
      </trkpt>
      <trkpt lat="46.85737" lon="-1.04669">
        <ele>106</ele>
        <time>2011-12-10T11:49:25Z</time>
      </trkpt>
      <trkpt lat="46.85722" lon="-1.04765">
        <ele>102</ele>
        <time>2011-12-10T11:49:37Z</time>
      </trkpt>
      <trkpt lat="46.85722" lon="-1.04804">
        <ele>101</ele>
        <time>2011-12-10T11:49:41Z</time>
      </trkpt>
      <trkpt lat="46.85722" lon="-1.04804">
        <ele>101</ele>
        <time>2011-12-10T11:49:41Z</time>
      </trkpt>
      <trkpt lat="46.85739" lon="-1.04931">
        <ele>100</ele>
        <time>2011-12-10T11:49:57Z</time>
      </trkpt>
      <trkpt lat="46.85746" lon="-1.04933">
        <ele>100</ele>
        <time>2011-12-10T11:49:58Z</time>
      </trkpt>
      <trkpt lat="46.85749" lon="-1.04942">
        <ele>100</ele>
        <time>2011-12-10T11:49:59Z</time>
      </trkpt>
      <trkpt lat="46.85744" lon="-1.04953">
        <ele>100</ele>
        <time>2011-12-10T11:50:01Z</time>
      </trkpt>
      <trkpt lat="46.85748" lon="-1.05028">
        <ele>98</ele>
        <time>2011-12-10T11:50:10Z</time>
      </trkpt>
      <trkpt lat="46.85739" lon="-1.05163">
        <ele>96</ele>
        <time>2011-12-10T11:50:26Z</time>
      </trkpt>
      <trkpt lat="46.85725" lon="-1.05256">
        <ele>96</ele>
        <time>2011-12-10T11:50:37Z</time>
      </trkpt>
      <trkpt lat="46.85704" lon="-1.05354">
        <ele>99</ele>
        <time>2011-12-10T11:50:49Z</time>
      </trkpt>
      <trkpt lat="46.85702" lon="-1.05402">
        <ele>98</ele>
        <time>2011-12-10T11:50:55Z</time>
      </trkpt>
      <trkpt lat="46.85706" lon="-1.05438">
        <ele>98</ele>
        <time>2011-12-10T11:50:59Z</time>
      </trkpt>
      <trkpt lat="46.85764" lon="-1.05719">
        <ele>92</ele>
        <time>2011-12-10T11:51:34Z</time>
      </trkpt>
      <trkpt lat="46.85836" lon="-1.05974">
        <ele>95</ele>
        <time>2011-12-10T11:52:07Z</time>
      </trkpt>
      <trkpt lat="46.85841" lon="-1.06046">
        <ele>96</ele>
        <time>2011-12-10T11:52:16Z</time>
      </trkpt>
      <trkpt lat="46.85819" lon="-1.06238">
        <ele>97</ele>
        <time>2011-12-10T11:52:39Z</time>
      </trkpt>
      <trkpt lat="46.85812" lon="-1.06518">
        <ele>97</ele>
        <time>2011-12-10T11:53:12Z</time>
      </trkpt>
      <trkpt lat="46.85767" lon="-1.06675">
        <ele>100</ele>
        <time>2011-12-10T11:53:33Z</time>
      </trkpt>
      <trkpt lat="46.85714" lon="-1.06998">
        <ele>98</ele>
        <time>2011-12-10T11:54:12Z</time>
      </trkpt>
      <trkpt lat="46.8568" lon="-1.07166">
        <ele>98</ele>
        <time>2011-12-10T11:54:33Z</time>
      </trkpt>
      <trkpt lat="46.85671" lon="-1.07268">
        <ele>96</ele>
        <time>2011-12-10T11:54:45Z</time>
      </trkpt>
      <trkpt lat="46.85674" lon="-1.07307">
        <ele>95</ele>
        <time>2011-12-10T11:54:50Z</time>
      </trkpt>
      <trkpt lat="46.85714" lon="-1.07494">
        <ele>93</ele>
        <time>2011-12-10T11:55:13Z</time>
      </trkpt>
      <trkpt lat="46.85723" lon="-1.07556">
        <ele>93</ele>
        <time>2011-12-10T11:55:21Z</time>
      </trkpt>
      <trkpt lat="46.85729" lon="-1.07755">
        <ele>92</ele>
        <time>2011-12-10T11:55:44Z</time>
      </trkpt>
      <trkpt lat="46.85724" lon="-1.07874">
        <ele>91</ele>
        <time>2011-12-10T11:55:59Z</time>
      </trkpt>
      <trkpt lat="46.85726" lon="-1.07931">
        <ele>91</ele>
        <time>2011-12-10T11:56:05Z</time>
      </trkpt>
      <trkpt lat="46.85745" lon="-1.08176">
        <ele>94</ele>
        <time>2011-12-10T11:56:35Z</time>
      </trkpt>
      <trkpt lat="46.85754" lon="-1.08223">
        <ele>93</ele>
        <time>2011-12-10T11:56:41Z</time>
      </trkpt>
      <trkpt lat="46.85816" lon="-1.0847">
        <ele>90</ele>
        <time>2011-12-10T11:57:12Z</time>
      </trkpt>
      <trkpt lat="46.85831" lon="-1.08507">
        <ele>90</ele>
        <time>2011-12-10T11:57:17Z</time>
      </trkpt>
      <trkpt lat="46.8585" lon="-1.08533">
        <ele>90</ele>
        <time>2011-12-10T11:57:22Z</time>
      </trkpt>
      <trkpt lat="46.85801" lon="-1.08633">
        <ele>89</ele>
        <time>2011-12-10T11:57:36Z</time>
      </trkpt>
      <trkpt lat="46.85801" lon="-1.08633">
        <ele>89</ele>
        <time>2011-12-10T11:57:36Z</time>
      </trkpt>
      <trkpt lat="46.85769" lon="-1.08699">
        <ele>88</ele>
        <time>2011-12-10T11:57:46Z</time>
      </trkpt>
      <trkpt lat="46.85744" lon="-1.0874">
        <ele>86</ele>
        <time>2011-12-10T11:57:52Z</time>
      </trkpt>
      <trkpt lat="46.85743" lon="-1.08765">
        <ele>86</ele>
        <time>2011-12-10T11:57:55Z</time>
      </trkpt>
      <trkpt lat="46.85753" lon="-1.08791">
        <ele>86</ele>
        <time>2011-12-10T11:57:59Z</time>
      </trkpt>
      <trkpt lat="46.85813" lon="-1.08872">
        <ele>85</ele>
        <time>2011-12-10T11:58:13Z</time>
      </trkpt>
      <trkpt lat="46.85831" lon="-1.08906">
        <ele>82</ele>
        <time>2011-12-10T11:58:18Z</time>
      </trkpt>
      <trkpt lat="46.85858" lon="-1.08978">
        <ele>81</ele>
        <time>2011-12-10T11:58:28Z</time>
      </trkpt>
      <trkpt lat="46.85862" lon="-1.09">
        <ele>81</ele>
        <time>2011-12-10T11:58:31Z</time>
      </trkpt>
      <trkpt lat="46.85862" lon="-1.09041">
        <ele>81</ele>
        <time>2011-12-10T11:58:36Z</time>
      </trkpt>
      <trkpt lat="46.85863" lon="-1.09135">
        <ele>78</ele>
        <time>2011-12-10T11:58:47Z</time>
      </trkpt>
      <trkpt lat="46.8587" lon="-1.0919">
        <ele>78</ele>
        <time>2011-12-10T11:58:53Z</time>
      </trkpt>
      <trkpt lat="46.8588" lon="-1.09225">
        <ele>79</ele>
        <time>2011-12-10T11:58:58Z</time>
      </trkpt>
      <trkpt lat="46.85945" lon="-1.09374">
        <ele>84</ele>
        <time>2011-12-10T11:59:19Z</time>
      </trkpt>
      <trkpt lat="46.85962" lon="-1.09442">
        <ele>82</ele>
        <time>2011-12-10T11:59:28Z</time>
      </trkpt>
      <trkpt lat="46.85985" lon="-1.09568">
        <ele>81</ele>
        <time>2011-12-10T11:59:43Z</time>
      </trkpt>
      <trkpt lat="46.85983" lon="-1.09608">
        <ele>81</ele>
        <time>2011-12-10T11:59:48Z</time>
      </trkpt>
      <trkpt lat="46.85945" lon="-1.0966">
        <ele>88</ele>
        <time>2011-12-10T11:59:57Z</time>
      </trkpt>
      <trkpt lat="46.85975" lon="-1.09758">
        <ele>84</ele>
        <time>2011-12-10T12:00:10Z</time>
      </trkpt>
      <trkpt lat="46.85968" lon="-1.09784">
        <ele>84</ele>
        <time>2011-12-10T12:00:13Z</time>
      </trkpt>
      <trkpt lat="46.85973" lon="-1.09848">
        <ele>84</ele>
        <time>2011-12-10T12:00:21Z</time>
      </trkpt>
      <trkpt lat="46.86009" lon="-1.09845">
        <ele>84</ele>
        <time>2011-12-10T12:00:27Z</time>
      </trkpt>
      <trkpt lat="46.86031" lon="-1.09892">
        <ele>87</ele>
        <time>2011-12-10T12:00:34Z</time>
      </trkpt>
      <trkpt lat="46.86031" lon="-1.09892">
        <ele>87</ele>
        <time>2011-12-10T12:00:34Z</time>
      </trkpt>
      <trkpt lat="46.86052" lon="-1.09937">
        <ele>84</ele>
        <time>2011-12-10T12:00:40Z</time>
      </trkpt>
      <trkpt lat="46.85975" lon="-1.09983">
        <ele>88</ele>
        <time>2011-12-10T12:00:55Z</time>
      </trkpt>
      <trkpt lat="46.85916" lon="-1.09998">
        <ele>91</ele>
        <time>2011-12-10T12:01:05Z</time>
      </trkpt>
      <trkpt lat="46.85898" lon="-1.10008">
        <ele>91</ele>
        <time>2011-12-10T12:01:08Z</time>
      </trkpt>
      <trkpt lat="46.85874" lon="-1.10037">
        <ele>92</ele>
        <time>2011-12-10T12:01:14Z</time>
      </trkpt>
      <trkpt lat="46.85838" lon="-1.10097">
        <ele>94</ele>
        <time>2011-12-10T12:01:23Z</time>
      </trkpt>
      <trkpt lat="46.85838" lon="-1.10097">
        <ele>94</ele>
        <time>2011-12-10T12:01:23Z</time>
      </trkpt>
      <trkpt lat="46.85813" lon="-1.10121">
        <ele>94</ele>
        <time>2011-12-10T12:01:29Z</time>
      </trkpt>
      <trkpt lat="46.85687" lon="-1.10195">
        <ele>97</ele>
        <time>2011-12-10T12:01:52Z</time>
      </trkpt>
      <trkpt lat="46.8549" lon="-1.10271">
        <ele>100</ele>
        <time>2011-12-10T12:02:28Z</time>
      </trkpt>
      <trkpt lat="46.84989" lon="-1.10307">
        <ele>104</ele>
        <time>2011-12-10T12:03:55Z</time>
      </trkpt>
      <trkpt lat="46.84989" lon="-1.10307">
        <ele>104</ele>
        <time>2011-12-10T12:03:55Z</time>
      </trkpt>
      <trkpt lat="46.84959" lon="-1.1031">
        <ele>104</ele>
        <time>2011-12-10T12:04:00Z</time>
      </trkpt>
      <trkpt lat="46.84928" lon="-1.1032">
        <ele>104</ele>
        <time>2011-12-10T12:04:06Z</time>
      </trkpt>
      <trkpt lat="46.84757" lon="-1.10395">
        <ele>100</ele>
        <time>2011-12-10T12:04:37Z</time>
      </trkpt>
      <trkpt lat="46.84538" lon="-1.10462">
        <ele>96</ele>
        <time>2011-12-10T12:05:16Z</time>
      </trkpt>
      <trkpt lat="46.84482" lon="-1.10488">
        <ele>96</ele>
        <time>2011-12-10T12:05:26Z</time>
      </trkpt>
      <trkpt lat="46.84381" lon="-1.1057">
        <ele>95</ele>
        <time>2011-12-10T12:05:46Z</time>
      </trkpt>
      <trkpt lat="46.83954" lon="-1.10944">
        <ele>96</ele>
        <time>2011-12-10T12:07:13Z</time>
      </trkpt>
      <trkpt lat="46.83558" lon="-1.1144">
        <ele>93</ele>
        <time>2011-12-10T12:08:44Z</time>
      </trkpt>
      <trkpt lat="46.83534" lon="-1.11487">
        <ele>95</ele>
        <time>2011-12-10T12:08:50Z</time>
      </trkpt>
      <trkpt lat="46.83362" lon="-1.11883">
        <ele>97</ele>
        <time>2011-12-10T12:09:46Z</time>
      </trkpt>
      <trkpt lat="46.8332" lon="-1.1195">
        <ele>97</ele>
        <time>2011-12-10T12:09:57Z</time>
      </trkpt>
      <trkpt lat="46.83274" lon="-1.11999">
        <ele>99</ele>
        <time>2011-12-10T12:10:07Z</time>
      </trkpt>
      <trkpt lat="46.83204" lon="-1.12047">
        <ele>98</ele>
        <time>2011-12-10T12:10:21Z</time>
      </trkpt>
      <trkpt lat="46.83155" lon="-1.12091">
        <ele>98</ele>
        <time>2011-12-10T12:10:31Z</time>
      </trkpt>
      <trkpt lat="46.83013" lon="-1.1223">
        <ele>94</ele>
        <time>2011-12-10T12:11:00Z</time>
      </trkpt>
      <trkpt lat="46.83013" lon="-1.1223">
        <ele>94</ele>
        <time>2011-12-10T12:11:00Z</time>
      </trkpt>
      <trkpt lat="46.8286" lon="-1.12383">
        <ele>88</ele>
        <time>2011-12-10T12:11:33Z</time>
      </trkpt>
      <trkpt lat="46.8276" lon="-1.1245">
        <ele>86</ele>
        <time>2011-12-10T12:11:52Z</time>
      </trkpt>
      <trkpt lat="46.82708" lon="-1.12477">
        <ele>82</ele>
        <time>2011-12-10T12:12:01Z</time>
      </trkpt>
      <trkpt lat="46.82685" lon="-1.1247">
        <ele>82</ele>
        <time>2011-12-10T12:12:05Z</time>
      </trkpt>
      <trkpt lat="46.82583" lon="-1.12289">
        <ele>84</ele>
        <time>2011-12-10T12:12:33Z</time>
      </trkpt>
      <trkpt lat="46.82563" lon="-1.12244">
        <ele>84</ele>
        <time>2011-12-10T12:12:40Z</time>
      </trkpt>
      <trkpt lat="46.8254" lon="-1.12199">
        <ele>87</ele>
        <time>2011-12-10T12:12:46Z</time>
      </trkpt>
      <trkpt lat="46.82485" lon="-1.12119">
        <ele>88</ele>
        <time>2011-12-10T12:13:00Z</time>
      </trkpt>
      <trkpt lat="46.82289" lon="-1.11838">
        <ele>92</ele>
        <time>2011-12-10T12:13:48Z</time>
      </trkpt>
      <trkpt lat="46.82258" lon="-1.11804">
        <ele>92</ele>
        <time>2011-12-10T12:13:54Z</time>
      </trkpt>
      <trkpt lat="46.82196" lon="-1.1176">
        <ele>94</ele>
        <time>2011-12-10T12:14:06Z</time>
      </trkpt>
      <trkpt lat="46.82118" lon="-1.11692">
        <ele>95</ele>
        <time>2011-12-10T12:14:22Z</time>
      </trkpt>
      <trkpt lat="46.81897" lon="-1.11545">
        <ele>96</ele>
        <time>2011-12-10T12:15:05Z</time>
      </trkpt>
      <trkpt lat="46.81805" lon="-1.11499">
        <ele>97</ele>
        <time>2011-12-10T12:15:21Z</time>
      </trkpt>
      <trkpt lat="46.81581" lon="-1.11369">
        <ele>104</ele>
        <time>2011-12-10T12:16:03Z</time>
      </trkpt>
      <trkpt lat="46.81406" lon="-1.11299">
        <ele>106</ele>
        <time>2011-12-10T12:16:35Z</time>
      </trkpt>
      <trkpt lat="46.81342" lon="-1.1126">
        <ele>104</ele>
        <time>2011-12-10T12:16:47Z</time>
      </trkpt>
      <trkpt lat="46.81197" lon="-1.11186">
        <ele>102</ele>
        <time>2011-12-10T12:17:14Z</time>
      </trkpt>
      <trkpt lat="46.81156" lon="-1.1117">
        <ele>102</ele>
        <time>2011-12-10T12:17:21Z</time>
      </trkpt>
      <trkpt lat="46.81126" lon="-1.11175">
        <ele>102</ele>
        <time>2011-12-10T12:17:26Z</time>
      </trkpt>
      <trkpt lat="46.81059" lon="-1.11203">
        <ele>101</ele>
        <time>2011-12-10T12:17:39Z</time>
      </trkpt>
      <trkpt lat="46.81025" lon="-1.11206">
        <ele>100</ele>
        <time>2011-12-10T12:17:44Z</time>
      </trkpt>
      <trkpt lat="46.80832" lon="-1.11134">
        <ele>98</ele>
        <time>2011-12-10T12:18:19Z</time>
      </trkpt>
      <trkpt lat="46.80832" lon="-1.11134">
        <ele>98</ele>
        <time>2011-12-10T12:18:19Z</time>
      </trkpt>
      <trkpt lat="46.80803" lon="-1.11118">
        <ele>99</ele>
        <time>2011-12-10T12:18:25Z</time>
      </trkpt>
      <trkpt lat="46.80786" lon="-1.11099">
        <ele>97</ele>
        <time>2011-12-10T12:18:28Z</time>
      </trkpt>
      <trkpt lat="46.80709" lon="-1.11228">
        <ele>98</ele>
        <time>2011-12-10T12:18:49Z</time>
      </trkpt>
      <trkpt lat="46.80679" lon="-1.11269">
        <ele>97</ele>
        <time>2011-12-10T12:18:56Z</time>
      </trkpt>
      <trkpt lat="46.80624" lon="-1.11311">
        <ele>92</ele>
        <time>2011-12-10T12:19:07Z</time>
      </trkpt>
      <trkpt lat="46.80561" lon="-1.11322">
        <ele>92</ele>
        <time>2011-12-10T12:19:18Z</time>
      </trkpt>
      <trkpt lat="46.80534" lon="-1.11343">
        <ele>90</ele>
        <time>2011-12-10T12:19:23Z</time>
      </trkpt>
      <trkpt lat="46.80517" lon="-1.11351">
        <ele>90</ele>
        <time>2011-12-10T12:19:26Z</time>
      </trkpt>
      <trkpt lat="46.80477" lon="-1.11354">
        <ele>90</ele>
        <time>2011-12-10T12:19:33Z</time>
      </trkpt>
      <trkpt lat="46.80464" lon="-1.11348">
        <ele>90</ele>
        <time>2011-12-10T12:19:35Z</time>
      </trkpt>
      <trkpt lat="46.80442" lon="-1.11327">
        <ele>90</ele>
        <time>2011-12-10T12:19:40Z</time>
      </trkpt>
      <trkpt lat="46.8043" lon="-1.11328">
        <ele>90</ele>
        <time>2011-12-10T12:19:42Z</time>
      </trkpt>
      <trkpt lat="46.80418" lon="-1.1134">
        <ele>90</ele>
        <time>2011-12-10T12:19:45Z</time>
      </trkpt>
      <trkpt lat="46.80399" lon="-1.11384">
        <ele>91</ele>
        <time>2011-12-10T12:19:51Z</time>
      </trkpt>
      <trkpt lat="46.80357" lon="-1.11451">
        <ele>92</ele>
        <time>2011-12-10T12:20:02Z</time>
      </trkpt>
      <trkpt lat="46.80347" lon="-1.11551">
        <ele>95</ele>
        <time>2011-12-10T12:20:14Z</time>
      </trkpt>
      <trkpt lat="46.80336" lon="-1.11573">
        <ele>95</ele>
        <time>2011-12-10T12:20:17Z</time>
      </trkpt>
      <trkpt lat="46.80297" lon="-1.11616">
        <ele>95</ele>
        <time>2011-12-10T12:20:25Z</time>
      </trkpt>
      <trkpt lat="46.80292" lon="-1.11633">
        <ele>95</ele>
        <time>2011-12-10T12:20:28Z</time>
      </trkpt>
      <trkpt lat="46.80291" lon="-1.11691">
        <ele>95</ele>
        <time>2011-12-10T12:20:35Z</time>
      </trkpt>
      <trkpt lat="46.8033" lon="-1.11827">
        <ele>95</ele>
        <time>2011-12-10T12:20:52Z</time>
      </trkpt>
      <trkpt lat="46.8033" lon="-1.11827">
        <ele>95</ele>
        <time>2011-12-10T12:20:52Z</time>
      </trkpt>
      <trkpt lat="46.80362" lon="-1.11938">
        <ele>94</ele>
        <time>2011-12-10T12:21:06Z</time>
      </trkpt>
      <trkpt lat="46.80377" lon="-1.11958">
        <ele>96</ele>
        <time>2011-12-10T12:21:10Z</time>
      </trkpt>
      <trkpt lat="46.80394" lon="-1.11965">
        <ele>95</ele>
        <time>2011-12-10T12:21:13Z</time>
      </trkpt>
      <trkpt lat="46.80407" lon="-1.12065">
        <ele>96</ele>
        <time>2011-12-10T12:21:25Z</time>
      </trkpt>
      <trkpt lat="46.80462" lon="-1.1248">
        <ele>99</ele>
        <time>2011-12-10T12:22:16Z</time>
      </trkpt>
      <trkpt lat="46.80458" lon="-1.12509">
        <ele>98</ele>
        <time>2011-12-10T12:22:19Z</time>
      </trkpt>
      <trkpt lat="46.80447" lon="-1.12522">
        <ele>98</ele>
        <time>2011-12-10T12:22:22Z</time>
      </trkpt>
      <trkpt lat="46.80315" lon="-1.12594">
        <ele>96</ele>
        <time>2011-12-10T12:22:46Z</time>
      </trkpt>
      <trkpt lat="46.8018" lon="-1.12726">
        <ele>97</ele>
        <time>2011-12-10T12:23:14Z</time>
      </trkpt>
      <trkpt lat="46.80173" lon="-1.12737">
        <ele>97</ele>
        <time>2011-12-10T12:23:16Z</time>
      </trkpt>
      <trkpt lat="46.80166" lon="-1.1273">
        <ele>97</ele>
        <time>2011-12-10T12:23:18Z</time>
      </trkpt>
      <trkpt lat="46.80128" lon="-1.12817">
        <ele>99</ele>
        <time>2011-12-10T12:23:30Z</time>
      </trkpt>
      <trkpt lat="46.80128" lon="-1.12817">
        <ele>99</ele>
        <time>2011-12-10T12:23:30Z</time>
      </trkpt>
      <trkpt lat="46.80066" lon="-1.12957">
        <ele>97</ele>
        <time>2011-12-10T12:23:50Z</time>
      </trkpt>
      <trkpt lat="46.8004" lon="-1.13004">
        <ele>98</ele>
        <time>2011-12-10T12:23:57Z</time>
      </trkpt>
      <trkpt lat="46.8003" lon="-1.13038">
        <ele>98</ele>
        <time>2011-12-10T12:24:01Z</time>
      </trkpt>
      <trkpt lat="46.80021" lon="-1.13032">
        <ele>98</ele>
        <time>2011-12-10T12:24:03Z</time>
      </trkpt>
      <trkpt lat="46.80008" lon="-1.1307">
        <ele>97</ele>
        <time>2011-12-10T12:24:08Z</time>
      </trkpt>
      <trkpt lat="46.80028" lon="-1.13126">
        <ele>96</ele>
        <time>2011-12-10T12:24:16Z</time>
      </trkpt>
      <trkpt lat="46.8002" lon="-1.13137">
        <ele>96</ele>
        <time>2011-12-10T12:24:18Z</time>
      </trkpt>
      <trkpt lat="46.8" lon="-1.13148">
        <ele>96</ele>
        <time>2011-12-10T12:24:21Z</time>
      </trkpt>
      <trkpt lat="46.8" lon="-1.13148">
        <ele>96</ele>
        <time>2011-12-10T12:24:21Z</time>
      </trkpt>
      <trkpt lat="46.79833" lon="-1.13222">
        <ele>102</ele>
        <time>2011-12-10T12:24:52Z</time>
      </trkpt>
      <trkpt lat="46.79818" lon="-1.13219">
        <ele>102</ele>
        <time>2011-12-10T12:24:54Z</time>
      </trkpt>
      <trkpt lat="46.79818" lon="-1.13219">
        <ele>102</ele>
        <time>2011-12-10T12:24:54Z</time>
      </trkpt>
      <trkpt lat="46.798" lon="-1.13179">
        <ele>101</ele>
        <time>2011-12-10T12:25:00Z</time>
      </trkpt>
      <trkpt lat="46.79791" lon="-1.13189">
        <ele>105</ele>
        <time>2011-12-10T12:25:02Z</time>
      </trkpt>
      <trkpt lat="46.79704" lon="-1.1324">
        <ele>107</ele>
        <time>2011-12-10T12:25:18Z</time>
      </trkpt>
      <trkpt lat="46.795" lon="-1.13426">
        <ele>99</ele>
        <time>2011-12-10T12:26:00Z</time>
      </trkpt>
      <trkpt lat="46.79439" lon="-1.13463">
        <ele>94</ele>
        <time>2011-12-10T12:26:12Z</time>
      </trkpt>
      <trkpt lat="46.79311" lon="-1.13515">
        <ele>91</ele>
        <time>2011-12-10T12:26:35Z</time>
      </trkpt>
      <trkpt lat="46.79289" lon="-1.13533">
        <ele>87</ele>
        <time>2011-12-10T12:26:39Z</time>
      </trkpt>
      <trkpt lat="46.79238" lon="-1.13604">
        <ele>87</ele>
        <time>2011-12-10T12:26:51Z</time>
      </trkpt>
      <trkpt lat="46.79189" lon="-1.13663">
        <ele>88</ele>
        <time>2011-12-10T12:27:02Z</time>
      </trkpt>
      <trkpt lat="46.79157" lon="-1.13715">
        <ele>89</ele>
        <time>2011-12-10T12:27:11Z</time>
      </trkpt>
      <trkpt lat="46.79146" lon="-1.13742">
        <ele>89</ele>
        <time>2011-12-10T12:27:15Z</time>
      </trkpt>
      <trkpt lat="46.79122" lon="-1.13911">
        <ele>97</ele>
        <time>2011-12-10T12:27:35Z</time>
      </trkpt>
      <trkpt lat="46.7911" lon="-1.13937">
        <ele>97</ele>
        <time>2011-12-10T12:27:39Z</time>
      </trkpt>
      <trkpt lat="46.79092" lon="-1.13963">
        <ele>97</ele>
        <time>2011-12-10T12:27:43Z</time>
      </trkpt>
      <trkpt lat="46.79077" lon="-1.13976">
        <ele>97</ele>
        <time>2011-12-10T12:27:46Z</time>
      </trkpt>
      <trkpt lat="46.79021" lon="-1.14005">
        <ele>100</ele>
        <time>2011-12-10T12:27:57Z</time>
      </trkpt>
      <trkpt lat="46.7899" lon="-1.14028">
        <ele>100</ele>
        <time>2011-12-10T12:28:03Z</time>
      </trkpt>
      <trkpt lat="46.79004" lon="-1.14081">
        <ele>100</ele>
        <time>2011-12-10T12:28:09Z</time>
      </trkpt>
      <trkpt lat="46.79004" lon="-1.14081">
        <ele>100</ele>
        <time>2011-12-10T12:28:09Z</time>
      </trkpt>
      <trkpt lat="46.79016" lon="-1.14119">
        <ele>100</ele>
        <time>2011-12-10T12:28:14Z</time>
      </trkpt>
      <trkpt lat="46.79034" lon="-1.14151">
        <ele>100</ele>
        <time>2011-12-10T12:28:19Z</time>
      </trkpt>
      <trkpt lat="46.79167" lon="-1.14306">
        <ele>100</ele>
        <time>2011-12-10T12:28:49Z</time>
      </trkpt>
      <trkpt lat="46.79192" lon="-1.14341">
        <ele>100</ele>
        <time>2011-12-10T12:28:55Z</time>
      </trkpt>
      <trkpt lat="46.79312" lon="-1.14663">
        <ele>101</ele>
        <time>2011-12-10T12:29:39Z</time>
      </trkpt>
      <trkpt lat="46.79352" lon="-1.14783">
        <ele>101</ele>
        <time>2011-12-10T12:29:55Z</time>
      </trkpt>
      <trkpt lat="46.79359" lon="-1.14813">
        <ele>102</ele>
        <time>2011-12-10T12:29:58Z</time>
      </trkpt>
      <trkpt lat="46.79367" lon="-1.14888">
        <ele>101</ele>
        <time>2011-12-10T12:30:07Z</time>
      </trkpt>
      <trkpt lat="46.79372" lon="-1.14948">
        <ele>101</ele>
        <time>2011-12-10T12:30:15Z</time>
      </trkpt>
      <trkpt lat="46.79372" lon="-1.14948">
        <ele>101</ele>
        <time>2011-12-10T12:30:15Z</time>
      </trkpt>
      <trkpt lat="46.79376" lon="-1.1498">
        <ele>100</ele>
        <time>2011-12-10T12:30:19Z</time>
      </trkpt>
      <trkpt lat="46.79396" lon="-1.15028">
        <ele>100</ele>
        <time>2011-12-10T12:30:25Z</time>
      </trkpt>
      <trkpt lat="46.79279" lon="-1.15201">
        <ele>102</ele>
        <time>2011-12-10T12:30:54Z</time>
      </trkpt>
      <trkpt lat="46.79266" lon="-1.15242">
        <ele>102</ele>
        <time>2011-12-10T12:31:00Z</time>
      </trkpt>
      <trkpt lat="46.79187" lon="-1.15592">
        <ele>98</ele>
        <time>2011-12-10T12:31:43Z</time>
      </trkpt>
      <trkpt lat="46.79172" lon="-1.15719">
        <ele>94</ele>
        <time>2011-12-10T12:31:59Z</time>
      </trkpt>
      <trkpt lat="46.7916" lon="-1.15748">
        <ele>94</ele>
        <time>2011-12-10T12:32:03Z</time>
      </trkpt>
      <trkpt lat="46.79125" lon="-1.15807">
        <ele>93</ele>
        <time>2011-12-10T12:32:12Z</time>
      </trkpt>
      <trkpt lat="46.79084" lon="-1.159">
        <ele>91</ele>
        <time>2011-12-10T12:32:25Z</time>
      </trkpt>
      <trkpt lat="46.79052" lon="-1.15954">
        <ele>91</ele>
        <time>2011-12-10T12:32:34Z</time>
      </trkpt>
      <trkpt lat="46.79052" lon="-1.15954">
        <ele>91</ele>
        <time>2011-12-10T12:32:34Z</time>
      </trkpt>
      <trkpt lat="46.79006" lon="-1.16029">
        <ele>91</ele>
        <time>2011-12-10T12:32:46Z</time>
      </trkpt>
      <trkpt lat="46.78987" lon="-1.16047">
        <ele>88</ele>
        <time>2011-12-10T12:32:50Z</time>
      </trkpt>
      <trkpt lat="46.78966" lon="-1.16056">
        <ele>88</ele>
        <time>2011-12-10T12:32:54Z</time>
      </trkpt>
      <trkpt lat="46.78915" lon="-1.16058">
        <ele>91</ele>
        <time>2011-12-10T12:33:03Z</time>
      </trkpt>
      <trkpt lat="46.7889" lon="-1.16065">
        <ele>91</ele>
        <time>2011-12-10T12:33:07Z</time>
      </trkpt>
      <trkpt lat="46.78758" lon="-1.1614">
        <ele>89</ele>
        <time>2011-12-10T12:33:32Z</time>
      </trkpt>
      <trkpt lat="46.78742" lon="-1.16156">
        <ele>89</ele>
        <time>2011-12-10T12:33:35Z</time>
      </trkpt>
      <trkpt lat="46.78689" lon="-1.163">
        <ele>80</ele>
        <time>2011-12-10T12:33:54Z</time>
      </trkpt>
      <trkpt lat="46.78676" lon="-1.16363">
        <ele>80</ele>
        <time>2011-12-10T12:34:02Z</time>
      </trkpt>
      <trkpt lat="46.78667" lon="-1.16411">
        <ele>79</ele>
        <time>2011-12-10T12:34:08Z</time>
      </trkpt>
      <trkpt lat="46.78656" lon="-1.16445">
        <ele>79</ele>
        <time>2011-12-10T12:34:13Z</time>
      </trkpt>
      <trkpt lat="46.78585" lon="-1.1661">
        <ele>86</ele>
        <time>2011-12-10T12:34:36Z</time>
      </trkpt>
      <trkpt lat="46.78562" lon="-1.16678">
        <ele>87</ele>
        <time>2011-12-10T12:34:45Z</time>
      </trkpt>
      <trkpt lat="46.78549" lon="-1.16774">
        <ele>88</ele>
        <time>2011-12-10T12:34:57Z</time>
      </trkpt>
      <trkpt lat="46.78549" lon="-1.16806">
        <ele>88</ele>
        <time>2011-12-10T12:35:00Z</time>
      </trkpt>
      <trkpt lat="46.78573" lon="-1.16919">
        <ele>87</ele>
        <time>2011-12-10T12:35:15Z</time>
      </trkpt>
      <trkpt lat="46.78545" lon="-1.16946">
        <ele>87</ele>
        <time>2011-12-10T12:35:20Z</time>
      </trkpt>
      <trkpt lat="46.78489" lon="-1.16966">
        <ele>85</ele>
        <time>2011-12-10T12:35:30Z</time>
      </trkpt>
      <trkpt lat="46.78388" lon="-1.16988">
        <ele>84</ele>
        <time>2011-12-10T12:35:48Z</time>
      </trkpt>
      <trkpt lat="46.78263" lon="-1.17002">
        <ele>89</ele>
        <time>2011-12-10T12:36:10Z</time>
      </trkpt>
      <trkpt lat="46.7819" lon="-1.17036">
        <ele>88</ele>
        <time>2011-12-10T12:36:23Z</time>
      </trkpt>
      <trkpt lat="46.78156" lon="-1.17043">
        <ele>89</ele>
        <time>2011-12-10T12:36:29Z</time>
      </trkpt>
      <trkpt lat="46.7813" lon="-1.17037">
        <ele>88</ele>
        <time>2011-12-10T12:36:34Z</time>
      </trkpt>
      <trkpt lat="46.78015" lon="-1.16966">
        <ele>90</ele>
        <time>2011-12-10T12:36:56Z</time>
      </trkpt>
      <trkpt lat="46.7799" lon="-1.16959">
        <ele>90</ele>
        <time>2011-12-10T12:37:00Z</time>
      </trkpt>
      <trkpt lat="46.77973" lon="-1.16961">
        <ele>90</ele>
        <time>2011-12-10T12:37:03Z</time>
      </trkpt>
      <trkpt lat="46.77891" lon="-1.1701">
        <ele>91</ele>
        <time>2011-12-10T12:37:18Z</time>
      </trkpt>
      <trkpt lat="46.77856" lon="-1.17023">
        <ele>88</ele>
        <time>2011-12-10T12:37:25Z</time>
      </trkpt>
      <trkpt lat="46.77715" lon="-1.16999">
        <ele>91</ele>
        <time>2011-12-10T12:37:49Z</time>
      </trkpt>
      <trkpt lat="46.77665" lon="-1.17021">
        <ele>91</ele>
        <time>2011-12-10T12:37:59Z</time>
      </trkpt>
      <trkpt lat="46.77564" lon="-1.17036">
        <ele>93</ele>
        <time>2011-12-10T12:38:16Z</time>
      </trkpt>
      <trkpt lat="46.77492" lon="-1.17077">
        <ele>97</ele>
        <time>2011-12-10T12:38:30Z</time>
      </trkpt>
      <trkpt lat="46.77449" lon="-1.17095">
        <ele>99</ele>
        <time>2011-12-10T12:38:37Z</time>
      </trkpt>
      <trkpt lat="46.77373" lon="-1.17107">
        <ele>100</ele>
        <time>2011-12-10T12:38:51Z</time>
      </trkpt>
      <trkpt lat="46.77373" lon="-1.17107">
        <ele>100</ele>
        <time>2011-12-10T12:38:51Z</time>
      </trkpt>
      <trkpt lat="46.77366" lon="-1.17108">
        <ele>100</ele>
        <time>2011-12-10T12:38:52Z</time>
      </trkpt>
      <trkpt lat="46.77341" lon="-1.17289">
        <ele>100</ele>
        <time>2011-12-10T12:39:14Z</time>
      </trkpt>
      <trkpt lat="46.7734" lon="-1.17363">
        <ele>101</ele>
        <time>2011-12-10T12:39:23Z</time>
      </trkpt>
      <trkpt lat="46.77361" lon="-1.17734">
        <ele>105</ele>
        <time>2011-12-10T12:40:07Z</time>
      </trkpt>
      <trkpt lat="46.7737" lon="-1.17799">
        <ele>104</ele>
        <time>2011-12-10T12:40:15Z</time>
      </trkpt>
      <trkpt lat="46.77406" lon="-1.1798">
        <ele>105</ele>
        <time>2011-12-10T12:40:38Z</time>
      </trkpt>
      <trkpt lat="46.7742" lon="-1.18033">
        <ele>105</ele>
        <time>2011-12-10T12:40:44Z</time>
      </trkpt>
      <trkpt lat="46.77436" lon="-1.18066">
        <ele>105</ele>
        <time>2011-12-10T12:40:49Z</time>
      </trkpt>
      <trkpt lat="46.77599" lon="-1.18348">
        <ele>99</ele>
        <time>2011-12-10T12:41:33Z</time>
      </trkpt>
      <trkpt lat="46.77644" lon="-1.18474">
        <ele>97</ele>
        <time>2011-12-10T12:41:50Z</time>
      </trkpt>
      <trkpt lat="46.77616" lon="-1.18491">
        <ele>98</ele>
        <time>2011-12-10T12:41:55Z</time>
      </trkpt>
      <trkpt lat="46.77569" lon="-1.1851">
        <ele>98</ele>
        <time>2011-12-10T12:42:04Z</time>
      </trkpt>
      <trkpt lat="46.77537" lon="-1.18545">
        <ele>96</ele>
        <time>2011-12-10T12:42:11Z</time>
      </trkpt>
      <trkpt lat="46.77522" lon="-1.18569">
        <ele>96</ele>
        <time>2011-12-10T12:42:15Z</time>
      </trkpt>
      <trkpt lat="46.77522" lon="-1.18569">
        <ele>96</ele>
        <time>2011-12-10T12:42:15Z</time>
      </trkpt>
      <trkpt lat="46.77487" lon="-1.18631">
        <ele>96</ele>
        <time>2011-12-10T12:42:24Z</time>
      </trkpt>
      <trkpt lat="46.77467" lon="-1.18682">
        <ele>96</ele>
        <time>2011-12-10T12:42:31Z</time>
      </trkpt>
      <trkpt lat="46.77481" lon="-1.18789">
        <ele>96</ele>
        <time>2011-12-10T12:42:44Z</time>
      </trkpt>
      <trkpt lat="46.77488" lon="-1.18876">
        <ele>94</ele>
        <time>2011-12-10T12:42:55Z</time>
      </trkpt>
      <trkpt lat="46.77484" lon="-1.18904">
        <ele>94</ele>
        <time>2011-12-10T12:42:58Z</time>
      </trkpt>
      <trkpt lat="46.77329" lon="-1.19132">
        <ele>98</ele>
        <time>2011-12-10T12:43:36Z</time>
      </trkpt>
      <trkpt lat="46.77225" lon="-1.19258">
        <ele>101</ele>
        <time>2011-12-10T12:44:00Z</time>
      </trkpt>
      <trkpt lat="46.77034" lon="-1.1902">
        <ele>98</ele>
        <time>2011-12-10T12:44:44Z</time>
      </trkpt>
      <trkpt lat="46.77034" lon="-1.1902">
        <ele>98</ele>
        <time>2011-12-10T12:44:44Z</time>
      </trkpt>
      <trkpt lat="46.76999" lon="-1.18975">
        <ele>98</ele>
        <time>2011-12-10T12:44:52Z</time>
      </trkpt>
      <trkpt lat="46.76984" lon="-1.18969">
        <ele>98</ele>
        <time>2011-12-10T12:44:54Z</time>
      </trkpt>
      <trkpt lat="46.76974" lon="-1.18976">
        <ele>98</ele>
        <time>2011-12-10T12:44:56Z</time>
      </trkpt>
      <trkpt lat="46.76938" lon="-1.19022">
        <ele>100</ele>
        <time>2011-12-10T12:45:05Z</time>
      </trkpt>
      <trkpt lat="46.76906" lon="-1.19032">
        <ele>100</ele>
        <time>2011-12-10T12:45:10Z</time>
      </trkpt>
      <trkpt lat="46.7687" lon="-1.19033">
        <ele>98</ele>
        <time>2011-12-10T12:45:17Z</time>
      </trkpt>
      <trkpt lat="46.76836" lon="-1.19056">
        <ele>98</ele>
        <time>2011-12-10T12:45:23Z</time>
      </trkpt>
      <trkpt lat="46.76805" lon="-1.19097">
        <ele>98</ele>
        <time>2011-12-10T12:45:30Z</time>
      </trkpt>
      <trkpt lat="46.76776" lon="-1.19155">
        <ele>92</ele>
        <time>2011-12-10T12:45:39Z</time>
      </trkpt>
      <trkpt lat="46.76744" lon="-1.19186">
        <ele>92</ele>
        <time>2011-12-10T12:45:46Z</time>
      </trkpt>
      <trkpt lat="46.7673" lon="-1.19206">
        <ele>92</ele>
        <time>2011-12-10T12:45:49Z</time>
      </trkpt>
      <trkpt lat="46.76648" lon="-1.19377">
        <ele>89</ele>
        <time>2011-12-10T12:46:14Z</time>
      </trkpt>
      <trkpt lat="46.76609" lon="-1.19446">
        <ele>90</ele>
        <time>2011-12-10T12:46:25Z</time>
      </trkpt>
      <trkpt lat="46.76562" lon="-1.19509">
        <ele>92</ele>
        <time>2011-12-10T12:46:36Z</time>
      </trkpt>
      <trkpt lat="46.76562" lon="-1.19509">
        <ele>92</ele>
        <time>2011-12-10T12:46:36Z</time>
      </trkpt>
      <trkpt lat="46.7648" lon="-1.19612">
        <ele>91</ele>
        <time>2011-12-10T12:46:55Z</time>
      </trkpt>
      <trkpt lat="46.76477" lon="-1.19537">
        <ele>92</ele>
        <time>2011-12-10T12:47:04Z</time>
      </trkpt>
      <trkpt lat="46.76464" lon="-1.19495">
        <ele>92</ele>
        <time>2011-12-10T12:47:09Z</time>
      </trkpt>
      <trkpt lat="46.76219" lon="-1.19124">
        <ele>78</ele>
        <time>2011-12-10T12:48:10Z</time>
      </trkpt>
      <trkpt lat="46.76195" lon="-1.19067">
        <ele>77</ele>
        <time>2011-12-10T12:48:18Z</time>
      </trkpt>
      <trkpt lat="46.76144" lon="-1.18917">
        <ele>74</ele>
        <time>2011-12-10T12:48:38Z</time>
      </trkpt>
      <trkpt lat="46.76111" lon="-1.18832">
        <ele>70</ele>
        <time>2011-12-10T12:48:50Z</time>
      </trkpt>
      <trkpt lat="46.7589" lon="-1.18451">
        <ele>69</ele>
        <time>2011-12-10T12:49:50Z</time>
      </trkpt>
      <trkpt lat="46.75851" lon="-1.18394">
        <ele>68</ele>
        <time>2011-12-10T12:49:59Z</time>
      </trkpt>
      <trkpt lat="46.75776" lon="-1.18312">
        <ele>67</ele>
        <time>2011-12-10T12:50:16Z</time>
      </trkpt>
      <trkpt lat="46.7575" lon="-1.18375">
        <ele>68</ele>
        <time>2011-12-10T12:50:24Z</time>
      </trkpt>
      <trkpt lat="46.75723" lon="-1.18476">
        <ele>69</ele>
        <time>2011-12-10T12:50:37Z</time>
      </trkpt>
      <trkpt lat="46.75714" lon="-1.18498">
        <ele>69</ele>
        <time>2011-12-10T12:50:40Z</time>
      </trkpt>
      <trkpt lat="46.75694" lon="-1.18524">
        <ele>70</ele>
        <time>2011-12-10T12:50:45Z</time>
      </trkpt>
      <trkpt lat="46.75694" lon="-1.18525">
        <ele>70</ele>
        <time>2011-12-10T12:50:45Z</time>
      </trkpt>
      <trkpt lat="46.75504" lon="-1.18694">
        <ele>76</ele>
        <time>2011-12-10T12:51:24Z</time>
      </trkpt>
      <trkpt lat="46.75484" lon="-1.18702">
        <ele>76</ele>
        <time>2011-12-10T12:51:27Z</time>
      </trkpt>
      <trkpt lat="46.75367" lon="-1.18702">
        <ele>80</ele>
        <time>2011-12-10T12:51:48Z</time>
      </trkpt>
      <trkpt lat="46.753" lon="-1.18739">
        <ele>79</ele>
        <time>2011-12-10T12:52:00Z</time>
      </trkpt>
      <trkpt lat="46.75208" lon="-1.18801">
        <ele>83</ele>
        <time>2011-12-10T12:52:18Z</time>
      </trkpt>
      <trkpt lat="46.75199" lon="-1.18798">
        <ele>83</ele>
        <time>2011-12-10T12:52:19Z</time>
      </trkpt>
      <trkpt lat="46.75174" lon="-1.18778">
        <ele>84</ele>
        <time>2011-12-10T12:52:24Z</time>
      </trkpt>
      <trkpt lat="46.75142" lon="-1.18725">
        <ele>84</ele>
        <time>2011-12-10T12:52:33Z</time>
      </trkpt>
      <trkpt lat="46.75089" lon="-1.18671">
        <ele>85</ele>
        <time>2011-12-10T12:52:44Z</time>
      </trkpt>
      <trkpt lat="46.75048" lon="-1.18553">
        <ele>83</ele>
        <time>2011-12-10T12:53:00Z</time>
      </trkpt>
      <trkpt lat="46.7504" lon="-1.1854">
        <ele>88</ele>
        <time>2011-12-10T12:53:02Z</time>
      </trkpt>
      <trkpt lat="46.7503" lon="-1.18533">
        <ele>88</ele>
        <time>2011-12-10T12:53:04Z</time>
      </trkpt>
      <trkpt lat="46.75013" lon="-1.18533">
        <ele>88</ele>
        <time>2011-12-10T12:53:07Z</time>
      </trkpt>
      <trkpt lat="46.74967" lon="-1.18553">
        <ele>90</ele>
        <time>2011-12-10T12:53:15Z</time>
      </trkpt>
      <trkpt lat="46.74889" lon="-1.186">
        <ele>92</ele>
        <time>2011-12-10T12:53:30Z</time>
      </trkpt>
      <trkpt lat="46.74741" lon="-1.18666">
        <ele>99</ele>
        <time>2011-12-10T12:53:57Z</time>
      </trkpt>
      <trkpt lat="46.74716" lon="-1.18687">
        <ele>99</ele>
        <time>2011-12-10T12:54:02Z</time>
      </trkpt>
      <trkpt lat="46.74705" lon="-1.1872">
        <ele>99</ele>
        <time>2011-12-10T12:54:06Z</time>
      </trkpt>
      <trkpt lat="46.74708" lon="-1.1881">
        <ele>97</ele>
        <time>2011-12-10T12:54:17Z</time>
      </trkpt>
      <trkpt lat="46.74697" lon="-1.1886">
        <ele>97</ele>
        <time>2011-12-10T12:54:23Z</time>
      </trkpt>
      <trkpt lat="46.7469" lon="-1.18875">
        <ele>95</ele>
        <time>2011-12-10T12:54:25Z</time>
      </trkpt>
      <trkpt lat="46.74625" lon="-1.18996">
        <ele>95</ele>
        <time>2011-12-10T12:54:44Z</time>
      </trkpt>
      <trkpt lat="46.74497" lon="-1.19148">
        <ele>106</ele>
        <time>2011-12-10T12:55:12Z</time>
      </trkpt>
      <trkpt lat="46.74413" lon="-1.1931">
        <ele>111</ele>
        <time>2011-12-10T12:55:37Z</time>
      </trkpt>
      <trkpt lat="46.74413" lon="-1.1931">
        <ele>111</ele>
        <time>2011-12-10T12:55:37Z</time>
      </trkpt>
      <trkpt lat="46.74402" lon="-1.19331">
        <ele>111</ele>
        <time>2011-12-10T12:55:40Z</time>
      </trkpt>
      <trkpt lat="46.74351" lon="-1.19189">
        <ele>112</ele>
        <time>2011-12-10T12:55:59Z</time>
      </trkpt>
      <trkpt lat="46.74316" lon="-1.19105">
        <ele>110</ele>
        <time>2011-12-10T12:56:11Z</time>
      </trkpt>
      <trkpt lat="46.74146" lon="-1.18728">
        <ele>111</ele>
        <time>2011-12-10T12:57:05Z</time>
      </trkpt>
      <trkpt lat="46.74114" lon="-1.18683">
        <ele>110</ele>
        <time>2011-12-10T12:57:12Z</time>
      </trkpt>
      <trkpt lat="46.74062" lon="-1.18647">
        <ele>110</ele>
        <time>2011-12-10T12:57:22Z</time>
      </trkpt>
      <trkpt lat="46.74008" lon="-1.18686">
        <ele>113</ele>
        <time>2011-12-10T12:57:33Z</time>
      </trkpt>
      <trkpt lat="46.73988" lon="-1.18706">
        <ele>113</ele>
        <time>2011-12-10T12:57:37Z</time>
      </trkpt>
      <trkpt lat="46.73614" lon="-1.19289">
        <ele>106</ele>
        <time>2011-12-10T12:59:12Z</time>
      </trkpt>
      <trkpt lat="46.73424" lon="-1.19522">
        <ele>100</ele>
        <time>2011-12-10T12:59:55Z</time>
      </trkpt>
      <trkpt lat="46.73331" lon="-1.19711">
        <ele>101</ele>
        <time>2011-12-10T13:00:23Z</time>
      </trkpt>
      <trkpt lat="46.73186" lon="-1.19946">
        <ele>101</ele>
        <time>2011-12-10T13:01:01Z</time>
      </trkpt>
      <trkpt lat="46.73147" lon="-1.19983">
        <ele>100</ele>
        <time>2011-12-10T13:01:09Z</time>
      </trkpt>
      <trkpt lat="46.72791" lon="-1.20236">
        <ele>98</ele>
        <time>2011-12-10T13:02:18Z</time>
      </trkpt>
      <trkpt lat="46.72729" lon="-1.20267">
        <ele>98</ele>
        <time>2011-12-10T13:02:29Z</time>
      </trkpt>
      <trkpt lat="46.72674" lon="-1.2028">
        <ele>99</ele>
        <time>2011-12-10T13:02:39Z</time>
      </trkpt>
      <trkpt lat="46.72634" lon="-1.20273">
        <ele>99</ele>
        <time>2011-12-10T13:02:46Z</time>
      </trkpt>
      <trkpt lat="46.72518" lon="-1.20211">
        <ele>97</ele>
        <time>2011-12-10T13:03:08Z</time>
      </trkpt>
      <trkpt lat="46.72285" lon="-1.20028">
        <ele>96</ele>
        <time>2011-12-10T13:03:54Z</time>
      </trkpt>
      <trkpt lat="46.72236" lon="-1.19996">
        <ele>96</ele>
        <time>2011-12-10T13:04:03Z</time>
      </trkpt>
      <trkpt lat="46.72215" lon="-1.19997">
        <ele>96</ele>
        <time>2011-12-10T13:04:07Z</time>
      </trkpt>
      <trkpt lat="46.72175" lon="-1.20011">
        <ele>97</ele>
        <time>2011-12-10T13:04:14Z</time>
      </trkpt>
      <trkpt lat="46.72138" lon="-1.20037">
        <ele>97</ele>
        <time>2011-12-10T13:04:21Z</time>
      </trkpt>
      <trkpt lat="46.72138" lon="-1.20037">
        <ele>97</ele>
        <time>2011-12-10T13:04:21Z</time>
      </trkpt>
      <trkpt lat="46.72161" lon="-1.20018">
        <ele>97</ele>
        <time>2011-12-10T13:04:25Z</time>
      </trkpt>
      <trkpt lat="46.72119" lon="-1.19958">
        <ele>97</ele>
        <time>2011-12-10T13:04:36Z</time>
      </trkpt>
      <trkpt lat="46.72015" lon="-1.2005">
        <ele>100</ele>
        <time>2011-12-10T13:04:57Z</time>
      </trkpt>
      <trkpt lat="46.72031" lon="-1.20083">
        <ele>100</ele>
        <time>2011-12-10T13:05:02Z</time>
      </trkpt>
      <trkpt lat="46.72037" lon="-1.20112">
        <ele>100</ele>
        <time>2011-12-10T13:05:05Z</time>
      </trkpt>
      <trkpt lat="46.72029" lon="-1.20145">
        <ele>101</ele>
        <time>2011-12-10T13:05:10Z</time>
      </trkpt>
      <trkpt lat="46.72018" lon="-1.20171">
        <ele>101</ele>
        <time>2011-12-10T13:05:13Z</time>
      </trkpt>
      <trkpt lat="46.71964" lon="-1.20267">
        <ele>101</ele>
        <time>2011-12-10T13:05:28Z</time>
      </trkpt>
      <trkpt lat="46.71895" lon="-1.20415">
        <ele>98</ele>
        <time>2011-12-10T13:05:49Z</time>
      </trkpt>
      <trkpt lat="46.71878" lon="-1.20444">
        <ele>98</ele>
        <time>2011-12-10T13:05:54Z</time>
      </trkpt>
      <trkpt lat="46.71674" lon="-1.20688">
        <ele>96</ele>
        <time>2011-12-10T13:06:40Z</time>
      </trkpt>
      <trkpt lat="46.71662" lon="-1.20728">
        <ele>95</ele>
        <time>2011-12-10T13:06:45Z</time>
      </trkpt>
      <trkpt lat="46.71657" lon="-1.20769">
        <ele>95</ele>
        <time>2011-12-10T13:06:50Z</time>
      </trkpt>
      <trkpt lat="46.71657" lon="-1.20769">
        <ele>95</ele>
        <time>2011-12-10T13:06:50Z</time>
      </trkpt>
      <trkpt lat="46.71648" lon="-1.20862">
        <ele>94</ele>
        <time>2011-12-10T13:07:01Z</time>
      </trkpt>
      <trkpt lat="46.71632" lon="-1.20905">
        <ele>91</ele>
        <time>2011-12-10T13:07:07Z</time>
      </trkpt>
      <trkpt lat="46.71568" lon="-1.20968">
        <ele>90</ele>
        <time>2011-12-10T13:07:20Z</time>
      </trkpt>
      <trkpt lat="46.71539" lon="-1.21022">
        <ele>87</ele>
        <time>2011-12-10T13:07:29Z</time>
      </trkpt>
      <trkpt lat="46.71518" lon="-1.21046">
        <ele>89</ele>
        <time>2011-12-10T13:07:33Z</time>
      </trkpt>
      <trkpt lat="46.71481" lon="-1.21071">
        <ele>89</ele>
        <time>2011-12-10T13:07:40Z</time>
      </trkpt>
      <trkpt lat="46.71394" lon="-1.21088">
        <ele>89</ele>
        <time>2011-12-10T13:07:56Z</time>
      </trkpt>
      <trkpt lat="46.71386" lon="-1.21103">
        <ele>89</ele>
        <time>2011-12-10T13:07:58Z</time>
      </trkpt>
      <trkpt lat="46.71383" lon="-1.21123">
        <ele>89</ele>
        <time>2011-12-10T13:08:00Z</time>
      </trkpt>
      <trkpt lat="46.71376" lon="-1.211">
        <ele>89</ele>
        <time>2011-12-10T13:08:03Z</time>
      </trkpt>
      <trkpt lat="46.71369" lon="-1.21092">
        <ele>89</ele>
        <time>2011-12-10T13:08:05Z</time>
      </trkpt>
      <trkpt lat="46.71344" lon="-1.2109">
        <ele>89</ele>
        <time>2011-12-10T13:08:09Z</time>
      </trkpt>
      <trkpt lat="46.71244" lon="-1.21141">
        <ele>93</ele>
        <time>2011-12-10T13:08:28Z</time>
      </trkpt>
      <trkpt lat="46.71014" lon="-1.2121">
        <ele>100</ele>
        <time>2011-12-10T13:09:09Z</time>
      </trkpt>
      <trkpt lat="46.70891" lon="-1.21272">
        <ele>98</ele>
        <time>2011-12-10T13:09:31Z</time>
      </trkpt>
      <trkpt lat="46.70843" lon="-1.21287">
        <ele>98</ele>
        <time>2011-12-10T13:09:40Z</time>
      </trkpt>
      <trkpt lat="46.70785" lon="-1.21297">
        <ele>99</ele>
        <time>2011-12-10T13:09:50Z</time>
      </trkpt>
      <trkpt lat="46.7068" lon="-1.21303">
        <ele>99</ele>
        <time>2011-12-10T13:10:08Z</time>
      </trkpt>
      <trkpt lat="46.70608" lon="-1.21296">
        <ele>102</ele>
        <time>2011-12-10T13:10:21Z</time>
      </trkpt>
      <trkpt lat="46.70262" lon="-1.2124">
        <ele>101</ele>
        <time>2011-12-10T13:11:21Z</time>
      </trkpt>
      <trkpt lat="46.70207" lon="-1.21238">
        <ele>102</ele>
        <time>2011-12-10T13:11:31Z</time>
      </trkpt>
      <trkpt lat="46.70158" lon="-1.21257">
        <ele>102</ele>
        <time>2011-12-10T13:11:40Z</time>
      </trkpt>
      <trkpt lat="46.69911" lon="-1.21406">
        <ele>100</ele>
        <time>2011-12-10T13:12:26Z</time>
      </trkpt>
      <trkpt lat="46.69729" lon="-1.2149">
        <ele>100</ele>
        <time>2011-12-10T13:13:00Z</time>
      </trkpt>
      <trkpt lat="46.69729" lon="-1.2149">
        <ele>100</ele>
        <time>2011-12-10T13:13:00Z</time>
      </trkpt>
      <trkpt lat="46.69712" lon="-1.21499">
        <ele>100</ele>
        <time>2011-12-10T13:13:03Z</time>
      </trkpt>
      <trkpt lat="46.696" lon="-1.21279">
        <ele>103</ele>
        <time>2011-12-10T13:13:35Z</time>
      </trkpt>
      <trkpt lat="46.69553" lon="-1.21175">
        <ele>101</ele>
        <time>2011-12-10T13:13:50Z</time>
      </trkpt>
      <trkpt lat="46.69542" lon="-1.21126">
        <ele>101</ele>
        <time>2011-12-10T13:13:56Z</time>
      </trkpt>
      <trkpt lat="46.69494" lon="-1.20766">
        <ele>95</ele>
        <time>2011-12-10T13:14:40Z</time>
      </trkpt>
      <trkpt lat="46.69477" lon="-1.20672">
        <ele>95</ele>
        <time>2011-12-10T13:14:52Z</time>
      </trkpt>
      <trkpt lat="46.69458" lon="-1.20599">
        <ele>96</ele>
        <time>2011-12-10T13:15:01Z</time>
      </trkpt>
      <trkpt lat="46.69372" lon="-1.20348">
        <ele>95</ele>
        <time>2011-12-10T13:15:35Z</time>
      </trkpt>
      <trkpt lat="46.69348" lon="-1.20243">
        <ele>95</ele>
        <time>2011-12-10T13:15:48Z</time>
      </trkpt>
      <trkpt lat="46.69272" lon="-1.19694">
        <ele>83</ele>
        <time>2011-12-10T13:16:55Z</time>
      </trkpt>
      <trkpt lat="46.69277" lon="-1.19672">
        <ele>83</ele>
        <time>2011-12-10T13:16:57Z</time>
      </trkpt>
      <trkpt lat="46.69284" lon="-1.19659">
        <ele>83</ele>
        <time>2011-12-10T13:16:59Z</time>
      </trkpt>
      <trkpt lat="46.69344" lon="-1.1958">
        <ele>77</ele>
        <time>2011-12-10T13:17:13Z</time>
      </trkpt>
      <trkpt lat="46.69349" lon="-1.1956">
        <ele>77</ele>
        <time>2011-12-10T13:17:16Z</time>
      </trkpt>
      <trkpt lat="46.69348" lon="-1.19537">
        <ele>79</ele>
        <time>2011-12-10T13:17:19Z</time>
      </trkpt>
      <trkpt lat="46.69337" lon="-1.19513">
        <ele>79</ele>
        <time>2011-12-10T13:17:22Z</time>
      </trkpt>
      <trkpt lat="46.69314" lon="-1.195">
        <ele>79</ele>
        <time>2011-12-10T13:17:27Z</time>
      </trkpt>
      <trkpt lat="46.69291" lon="-1.19505">
        <ele>78</ele>
        <time>2011-12-10T13:17:31Z</time>
      </trkpt>
      <trkpt lat="46.69253" lon="-1.19529">
        <ele>78</ele>
        <time>2011-12-10T13:17:38Z</time>
      </trkpt>
      <trkpt lat="46.69239" lon="-1.19532">
        <ele>78</ele>
        <time>2011-12-10T13:17:40Z</time>
      </trkpt>
      <trkpt lat="46.69221" lon="-1.19524">
        <ele>78</ele>
        <time>2011-12-10T13:17:44Z</time>
      </trkpt>
      <trkpt lat="46.69207" lon="-1.19498">
        <ele>80</ele>
        <time>2011-12-10T13:17:47Z</time>
      </trkpt>
      <trkpt lat="46.6915" lon="-1.19294">
        <ele>88</ele>
        <time>2011-12-10T13:18:14Z</time>
      </trkpt>
      <trkpt lat="46.69066" lon="-1.19138">
        <ele>94</ele>
        <time>2011-12-10T13:18:37Z</time>
      </trkpt>
      <trkpt lat="46.69028" lon="-1.19048">
        <ele>95</ele>
        <time>2011-12-10T13:18:50Z</time>
      </trkpt>
      <trkpt lat="46.69012" lon="-1.1897">
        <ele>96</ele>
        <time>2011-12-10T13:19:00Z</time>
      </trkpt>
      <trkpt lat="46.69009" lon="-1.18788">
        <ele>100</ele>
        <time>2011-12-10T13:19:21Z</time>
      </trkpt>
      <trkpt lat="46.68998" lon="-1.18698">
        <ele>100</ele>
        <time>2011-12-10T13:19:32Z</time>
      </trkpt>
      <trkpt lat="46.68947" lon="-1.1844">
        <ele>101</ele>
        <time>2011-12-10T13:20:04Z</time>
      </trkpt>
      <trkpt lat="46.68894" lon="-1.18258">
        <ele>101</ele>
        <time>2011-12-10T13:20:28Z</time>
      </trkpt>
      <trkpt lat="46.68884" lon="-1.18211">
        <ele>101</ele>
        <time>2011-12-10T13:20:34Z</time>
      </trkpt>
      <trkpt lat="46.68801" lon="-1.17767">
        <ele>98</ele>
        <time>2011-12-10T13:21:29Z</time>
      </trkpt>
      <trkpt lat="46.68707" lon="-1.17385">
        <ele>94</ele>
        <time>2011-12-10T13:22:17Z</time>
      </trkpt>
      <trkpt lat="46.68683" lon="-1.17308">
        <ele>95</ele>
        <time>2011-12-10T13:22:27Z</time>
      </trkpt>
      <trkpt lat="46.68585" lon="-1.17034">
        <ele>100</ele>
        <time>2011-12-10T13:23:04Z</time>
      </trkpt>
      <trkpt lat="46.68528" lon="-1.16842">
        <ele>97</ele>
        <time>2011-12-10T13:23:29Z</time>
      </trkpt>
      <trkpt lat="46.68508" lon="-1.16756">
        <ele>96</ele>
        <time>2011-12-10T13:23:40Z</time>
      </trkpt>
      <trkpt lat="46.6849" lon="-1.1665">
        <ele>94</ele>
        <time>2011-12-10T13:23:53Z</time>
      </trkpt>
      <trkpt lat="46.68477" lon="-1.16561">
        <ele>95</ele>
        <time>2011-12-10T13:24:04Z</time>
      </trkpt>
      <trkpt lat="46.68461" lon="-1.16403">
        <ele>96</ele>
        <time>2011-12-10T13:24:23Z</time>
      </trkpt>
      <trkpt lat="46.68452" lon="-1.15942">
        <ele>102</ele>
        <time>2011-12-10T13:25:18Z</time>
      </trkpt>
      <trkpt lat="46.68457" lon="-1.1585">
        <ele>103</ele>
        <time>2011-12-10T13:25:29Z</time>
      </trkpt>
      <trkpt lat="46.68476" lon="-1.15735">
        <ele>101</ele>
        <time>2011-12-10T13:25:43Z</time>
      </trkpt>
      <trkpt lat="46.68522" lon="-1.15535">
        <ele>105</ele>
        <time>2011-12-10T13:26:09Z</time>
      </trkpt>
      <trkpt lat="46.68536" lon="-1.15386">
        <ele>107</ele>
        <time>2011-12-10T13:26:26Z</time>
      </trkpt>
      <trkpt lat="46.68537" lon="-1.15322">
        <ele>107</ele>
        <time>2011-12-10T13:26:34Z</time>
      </trkpt>
      <trkpt lat="46.68531" lon="-1.15141">
        <ele>107</ele>
        <time>2011-12-10T13:26:56Z</time>
      </trkpt>
      <trkpt lat="46.68494" lon="-1.14257">
        <ele>101</ele>
        <time>2011-12-10T13:28:41Z</time>
      </trkpt>
      <trkpt lat="46.68496" lon="-1.1417">
        <ele>100</ele>
        <time>2011-12-10T13:28:52Z</time>
      </trkpt>
      <trkpt lat="46.68509" lon="-1.14107">
        <ele>100</ele>
        <time>2011-12-10T13:29:00Z</time>
      </trkpt>
      <trkpt lat="46.68509" lon="-1.14107">
        <ele>100</ele>
        <time>2011-12-10T13:29:00Z</time>
      </trkpt>
      <trkpt lat="46.6855" lon="-1.13995">
        <ele>100</ele>
        <time>2011-12-10T13:29:15Z</time>
      </trkpt>
      <trkpt lat="46.68568" lon="-1.13932">
        <ele>99</ele>
        <time>2011-12-10T13:29:23Z</time>
      </trkpt>
      <trkpt lat="46.68606" lon="-1.13718">
        <ele>97</ele>
        <time>2011-12-10T13:29:49Z</time>
      </trkpt>
      <trkpt lat="46.68616" lon="-1.13555">
        <ele>97</ele>
        <time>2011-12-10T13:30:09Z</time>
      </trkpt>
      <trkpt lat="46.68624" lon="-1.1352">
        <ele>96</ele>
        <time>2011-12-10T13:30:13Z</time>
      </trkpt>
      <trkpt lat="46.68634" lon="-1.13487">
        <ele>98</ele>
        <time>2011-12-10T13:30:18Z</time>
      </trkpt>
      <trkpt lat="46.68698" lon="-1.1333">
        <ele>98</ele>
        <time>2011-12-10T13:30:39Z</time>
      </trkpt>
      <trkpt lat="46.68702" lon="-1.13307">
        <ele>98</ele>
        <time>2011-12-10T13:30:42Z</time>
      </trkpt>
      <trkpt lat="46.68701" lon="-1.13275">
        <ele>98</ele>
        <time>2011-12-10T13:30:46Z</time>
      </trkpt>
      <trkpt lat="46.68693" lon="-1.13203">
        <ele>101</ele>
        <time>2011-12-10T13:30:55Z</time>
      </trkpt>
      <trkpt lat="46.68754" lon="-1.13126">
        <ele>102</ele>
        <time>2011-12-10T13:31:09Z</time>
      </trkpt>
      <trkpt lat="46.6884" lon="-1.13047">
        <ele>100</ele>
        <time>2011-12-10T13:31:27Z</time>
      </trkpt>
      <trkpt lat="46.6886" lon="-1.12995">
        <ele>99</ele>
        <time>2011-12-10T13:31:34Z</time>
      </trkpt>
      <trkpt lat="46.68823" lon="-1.12944">
        <ele>98</ele>
        <time>2011-12-10T13:31:43Z</time>
      </trkpt>
      <trkpt lat="46.68807" lon="-1.12904">
        <ele>98</ele>
        <time>2011-12-10T13:31:48Z</time>
      </trkpt>
      <trkpt lat="46.68785" lon="-1.12804">
        <ele>97</ele>
        <time>2011-12-10T13:32:01Z</time>
      </trkpt>
      <trkpt lat="46.68738" lon="-1.1265">
        <ele>92</ele>
        <time>2011-12-10T13:32:21Z</time>
      </trkpt>
      <trkpt lat="46.68733" lon="-1.12582">
        <ele>91</ele>
        <time>2011-12-10T13:32:29Z</time>
      </trkpt>
      <trkpt lat="46.68744" lon="-1.12504">
        <ele>90</ele>
        <time>2011-12-10T13:32:38Z</time>
      </trkpt>
      <trkpt lat="46.68781" lon="-1.12371">
        <ele>87</ele>
        <time>2011-12-10T13:32:56Z</time>
      </trkpt>
      <trkpt lat="46.68875" lon="-1.12166">
        <ele>87</ele>
        <time>2011-12-10T13:33:25Z</time>
      </trkpt>
      <trkpt lat="46.68877" lon="-1.12135">
        <ele>87</ele>
        <time>2011-12-10T13:33:29Z</time>
      </trkpt>
      <trkpt lat="46.68861" lon="-1.12003">
        <ele>74</ele>
        <time>2011-12-10T13:33:45Z</time>
      </trkpt>
      <trkpt lat="46.68865" lon="-1.11969">
        <ele>74</ele>
        <time>2011-12-10T13:33:49Z</time>
      </trkpt>
      <trkpt lat="46.68893" lon="-1.11908">
        <ele>74</ele>
        <time>2011-12-10T13:33:58Z</time>
      </trkpt>
      <trkpt lat="46.68901" lon="-1.11878">
        <ele>74</ele>
        <time>2011-12-10T13:34:01Z</time>
      </trkpt>
      <trkpt lat="46.68899" lon="-1.11816">
        <ele>69</ele>
        <time>2011-12-10T13:34:09Z</time>
      </trkpt>
      <trkpt lat="46.68892" lon="-1.11767">
        <ele>50</ele>
        <time>2011-12-10T13:34:15Z</time>
      </trkpt>
      <trkpt lat="46.6888" lon="-1.11717">
        <ele>50</ele>
        <time>2011-12-10T13:34:21Z</time>
      </trkpt>
      <trkpt lat="46.68857" lon="-1.11684">
        <ele>40</ele>
        <time>2011-12-10T13:34:27Z</time>
      </trkpt>
      <trkpt lat="46.68687" lon="-1.11583">
        <ele>52</ele>
        <time>2011-12-10T13:34:59Z</time>
      </trkpt>
      <trkpt lat="46.6865" lon="-1.11549">
        <ele>52</ele>
        <time>2011-12-10T13:35:06Z</time>
      </trkpt>
      <trkpt lat="46.68625" lon="-1.1151">
        <ele>45</ele>
        <time>2011-12-10T13:35:13Z</time>
      </trkpt>
      <trkpt lat="46.68615" lon="-1.11475">
        <ele>45</ele>
        <time>2011-12-10T13:35:17Z</time>
      </trkpt>
      <trkpt lat="46.68614" lon="-1.11458">
        <ele>40</ele>
        <time>2011-12-10T13:35:19Z</time>
      </trkpt>
      <trkpt lat="46.68622" lon="-1.11417">
        <ele>40</ele>
        <time>2011-12-10T13:35:24Z</time>
      </trkpt>
      <trkpt lat="46.68635" lon="-1.11393">
        <ele>42</ele>
        <time>2011-12-10T13:35:28Z</time>
      </trkpt>
      <trkpt lat="46.68692" lon="-1.11332">
        <ele>47</ele>
        <time>2011-12-10T13:35:40Z</time>
      </trkpt>
      <trkpt lat="46.68723" lon="-1.11307">
        <ele>55</ele>
        <time>2011-12-10T13:35:46Z</time>
      </trkpt>
      <trkpt lat="46.6874" lon="-1.11305">
        <ele>55</ele>
        <time>2011-12-10T13:35:49Z</time>
      </trkpt>
      <trkpt lat="46.6876" lon="-1.11311">
        <ele>55</ele>
        <time>2011-12-10T13:35:53Z</time>
      </trkpt>
      <trkpt lat="46.68873" lon="-1.11438">
        <ele>49</ele>
        <time>2011-12-10T13:36:18Z</time>
      </trkpt>
      <trkpt lat="46.68917" lon="-1.11464">
        <ele>45</ele>
        <time>2011-12-10T13:36:26Z</time>
      </trkpt>
      <trkpt lat="46.68965" lon="-1.11484">
        <ele>52</ele>
        <time>2011-12-10T13:36:35Z</time>
      </trkpt>
      <trkpt lat="46.68998" lon="-1.11488">
        <ele>52</ele>
        <time>2011-12-10T13:36:41Z</time>
      </trkpt>
      <trkpt lat="46.69044" lon="-1.11474">
        <ele>53</ele>
        <time>2011-12-10T13:36:49Z</time>
      </trkpt>
      <trkpt lat="46.69076" lon="-1.11449">
        <ele>57</ele>
        <time>2011-12-10T13:36:55Z</time>
      </trkpt>
      <trkpt lat="46.69095" lon="-1.11423">
        <ele>57</ele>
        <time>2011-12-10T13:37:00Z</time>
      </trkpt>
      <trkpt lat="46.69109" lon="-1.11393">
        <ele>57</ele>
        <time>2011-12-10T13:37:04Z</time>
      </trkpt>
      <trkpt lat="46.69119" lon="-1.11352">
        <ele>61</ele>
        <time>2011-12-10T13:37:09Z</time>
      </trkpt>
      <trkpt lat="46.69121" lon="-1.11319">
        <ele>61</ele>
        <time>2011-12-10T13:37:13Z</time>
      </trkpt>
      <trkpt lat="46.6911" lon="-1.11168">
        <ele>64</ele>
        <time>2011-12-10T13:37:31Z</time>
      </trkpt>
      <trkpt lat="46.69119" lon="-1.11128">
        <ele>64</ele>
        <time>2011-12-10T13:37:36Z</time>
      </trkpt>
      <trkpt lat="46.6914" lon="-1.11077">
        <ele>67</ele>
        <time>2011-12-10T13:37:43Z</time>
      </trkpt>
      <trkpt lat="46.69142" lon="-1.11047">
        <ele>67</ele>
        <time>2011-12-10T13:37:47Z</time>
      </trkpt>
      <trkpt lat="46.69134" lon="-1.11017">
        <ele>68</ele>
        <time>2011-12-10T13:37:51Z</time>
      </trkpt>
      <trkpt lat="46.69124" lon="-1.11001">
        <ele>66</ele>
        <time>2011-12-10T13:37:53Z</time>
      </trkpt>
      <trkpt lat="46.69078" lon="-1.10955">
        <ele>67</ele>
        <time>2011-12-10T13:38:03Z</time>
      </trkpt>
      <trkpt lat="46.69061" lon="-1.1093">
        <ele>67</ele>
        <time>2011-12-10T13:38:07Z</time>
      </trkpt>
      <trkpt lat="46.69054" lon="-1.10908">
        <ele>67</ele>
        <time>2011-12-10T13:38:10Z</time>
      </trkpt>
      <trkpt lat="46.69053" lon="-1.10874">
        <ele>71</ele>
        <time>2011-12-10T13:38:14Z</time>
      </trkpt>
      <trkpt lat="46.69119" lon="-1.10406">
        <ele>77</ele>
        <time>2011-12-10T13:39:11Z</time>
      </trkpt>
      <trkpt lat="46.69121" lon="-1.10052">
        <ele>84</ele>
        <time>2011-12-10T13:39:54Z</time>
      </trkpt>
      <trkpt lat="46.69121" lon="-1.10052">
        <ele>84</ele>
        <time>2011-12-10T13:39:54Z</time>
      </trkpt>
      <trkpt lat="46.69121" lon="-1.09883">
        <ele>86</ele>
        <time>2011-12-10T13:40:14Z</time>
      </trkpt>
      <trkpt lat="46.69232" lon="-1.09878">
        <ele>85</ele>
        <time>2011-12-10T13:40:33Z</time>
      </trkpt>
      <trkpt lat="46.69288" lon="-1.0986">
        <ele>83</ele>
        <time>2011-12-10T13:40:43Z</time>
      </trkpt>
      <trkpt lat="46.69318" lon="-1.09859">
        <ele>86</ele>
        <time>2011-12-10T13:40:48Z</time>
      </trkpt>
      <trkpt lat="46.69351" lon="-1.09876">
        <ele>86</ele>
        <time>2011-12-10T13:40:54Z</time>
      </trkpt>
      <trkpt lat="46.69533" lon="-1.10004">
        <ele>91</ele>
        <time>2011-12-10T13:41:29Z</time>
      </trkpt>
      <trkpt lat="46.69652" lon="-1.10073">
        <ele>100</ele>
        <time>2011-12-10T13:41:52Z</time>
      </trkpt>
      <trkpt lat="46.69688" lon="-1.10071">
        <ele>100</ele>
        <time>2011-12-10T13:41:58Z</time>
      </trkpt>
      <trkpt lat="46.6976" lon="-1.1004">
        <ele>103</ele>
        <time>2011-12-10T13:42:11Z</time>
      </trkpt>
      <trkpt lat="46.69842" lon="-1.10014">
        <ele>105</ele>
        <time>2011-12-10T13:42:26Z</time>
      </trkpt>
      <trkpt lat="46.69905" lon="-1.09873">
        <ele>104</ele>
        <time>2011-12-10T13:42:46Z</time>
      </trkpt>
      <trkpt lat="46.69905" lon="-1.09873">
        <ele>104</ele>
        <time>2011-12-10T13:42:46Z</time>
      </trkpt>
      <trkpt lat="46.69908" lon="-1.09864">
        <ele>104</ele>
        <time>2011-12-10T13:42:47Z</time>
      </trkpt>
      <trkpt lat="46.6999" lon="-1.09703">
        <ele>99</ele>
        <time>2011-12-10T13:43:11Z</time>
      </trkpt>
      <trkpt lat="46.70017" lon="-1.09666">
        <ele>99</ele>
        <time>2011-12-10T13:43:17Z</time>
      </trkpt>
      <trkpt lat="46.70098" lon="-1.09575">
        <ele>101</ele>
        <time>2011-12-10T13:43:35Z</time>
      </trkpt>
      <trkpt lat="46.70126" lon="-1.09533">
        <ele>101</ele>
        <time>2011-12-10T13:43:42Z</time>
      </trkpt>
      <trkpt lat="46.70184" lon="-1.09416">
        <ele>99</ele>
        <time>2011-12-10T13:43:59Z</time>
      </trkpt>
      <trkpt lat="46.70221" lon="-1.09331">
        <ele>98</ele>
        <time>2011-12-10T13:44:11Z</time>
      </trkpt>
      <trkpt lat="46.70252" lon="-1.09247">
        <ele>94</ele>
        <time>2011-12-10T13:44:23Z</time>
      </trkpt>
      <trkpt lat="46.70328" lon="-1.08982">
        <ele>82</ele>
        <time>2011-12-10T13:44:57Z</time>
      </trkpt>
      <trkpt lat="46.70372" lon="-1.08916">
        <ele>81</ele>
        <time>2011-12-10T13:45:08Z</time>
      </trkpt>
      <trkpt lat="46.70402" lon="-1.08855">
        <ele>83</ele>
        <time>2011-12-10T13:45:17Z</time>
      </trkpt>
      <trkpt lat="46.70439" lon="-1.08756">
        <ele>83</ele>
        <time>2011-12-10T13:45:30Z</time>
      </trkpt>
      <trkpt lat="46.70525" lon="-1.0856">
        <ele>83</ele>
        <time>2011-12-10T13:45:58Z</time>
      </trkpt>
      <trkpt lat="46.70522" lon="-1.08532">
        <ele>81</ele>
        <time>2011-12-10T13:46:02Z</time>
      </trkpt>
      <trkpt lat="46.70526" lon="-1.08482">
        <ele>81</ele>
        <time>2011-12-10T13:46:08Z</time>
      </trkpt>
      <trkpt lat="46.70537" lon="-1.08437">
        <ele>79</ele>
        <time>2011-12-10T13:46:13Z</time>
      </trkpt>
      <trkpt lat="46.7061" lon="-1.08317">
        <ele>79</ele>
        <time>2011-12-10T13:46:33Z</time>
      </trkpt>
      <trkpt lat="46.7064" lon="-1.08216">
        <ele>73</ele>
        <time>2011-12-10T13:46:46Z</time>
      </trkpt>
      <trkpt lat="46.70699" lon="-1.07944">
        <ele>71</ele>
        <time>2011-12-10T13:47:20Z</time>
      </trkpt>
      <trkpt lat="46.70705" lon="-1.07904">
        <ele>71</ele>
        <time>2011-12-10T13:47:25Z</time>
      </trkpt>
      <trkpt lat="46.7071" lon="-1.07775">
        <ele>68</ele>
        <time>2011-12-10T13:47:40Z</time>
      </trkpt>
      <trkpt lat="46.70726" lon="-1.07662">
        <ele>66</ele>
        <time>2011-12-10T13:47:54Z</time>
      </trkpt>
      <trkpt lat="46.70737" lon="-1.07547">
        <ele>64</ele>
        <time>2011-12-10T13:48:08Z</time>
      </trkpt>
      <trkpt lat="46.70718" lon="-1.07437">
        <ele>63</ele>
        <time>2011-12-10T13:48:21Z</time>
      </trkpt>
      <trkpt lat="46.707" lon="-1.07242">
        <ele>63</ele>
        <time>2011-12-10T13:48:45Z</time>
      </trkpt>
      <trkpt lat="46.70668" lon="-1.07032">
        <ele>61</ele>
        <time>2011-12-10T13:49:10Z</time>
      </trkpt>
      <trkpt lat="46.70618" lon="-1.06834">
        <ele>62</ele>
        <time>2011-12-10T13:49:36Z</time>
      </trkpt>
      <trkpt lat="46.70608" lon="-1.06823">
        <ele>62</ele>
        <time>2011-12-10T13:49:38Z</time>
      </trkpt>
      <trkpt lat="46.70586" lon="-1.06814">
        <ele>62</ele>
        <time>2011-12-10T13:49:42Z</time>
      </trkpt>
      <trkpt lat="46.70592" lon="-1.06739">
        <ele>64</ele>
        <time>2011-12-10T13:49:51Z</time>
      </trkpt>
      <trkpt lat="46.70597" lon="-1.06719">
        <ele>64</ele>
        <time>2011-12-10T13:49:53Z</time>
      </trkpt>
      <trkpt lat="46.7069" lon="-1.06516">
        <ele>69</ele>
        <time>2011-12-10T13:50:22Z</time>
      </trkpt>
      <trkpt lat="46.70699" lon="-1.06486">
        <ele>69</ele>
        <time>2011-12-10T13:50:26Z</time>
      </trkpt>
      <trkpt lat="46.7071" lon="-1.06368">
        <ele>71</ele>
        <time>2011-12-10T13:50:40Z</time>
      </trkpt>
      <trkpt lat="46.70783" lon="-1.06418">
        <ele>69</ele>
        <time>2011-12-10T13:50:55Z</time>
      </trkpt>
      <trkpt lat="46.70783" lon="-1.06418">
        <ele>69</ele>
        <time>2011-12-10T13:50:55Z</time>
      </trkpt>
      <trkpt lat="46.70873" lon="-1.06479">
        <ele>68</ele>
        <time>2011-12-10T13:51:12Z</time>
      </trkpt>
      <trkpt lat="46.70987" lon="-1.06359">
        <ele>66</ele>
        <time>2011-12-10T13:51:36Z</time>
      </trkpt>
      <trkpt lat="46.71015" lon="-1.06315">
        <ele>66</ele>
        <time>2011-12-10T13:51:43Z</time>
      </trkpt>
      <trkpt lat="46.71121" lon="-1.06105">
        <ele>67</ele>
        <time>2011-12-10T13:52:15Z</time>
      </trkpt>
      <trkpt lat="46.7116" lon="-1.06005">
        <ele>67</ele>
        <time>2011-12-10T13:52:28Z</time>
      </trkpt>
      <trkpt lat="46.712" lon="-1.05884">
        <ele>68</ele>
        <time>2011-12-10T13:52:44Z</time>
      </trkpt>
      <trkpt lat="46.71205" lon="-1.05867">
        <ele>68</ele>
        <time>2011-12-10T13:52:47Z</time>
      </trkpt>
      <trkpt lat="46.71239" lon="-1.05821">
        <ele>68</ele>
        <time>2011-12-10T13:52:55Z</time>
      </trkpt>
      <trkpt lat="46.71249" lon="-1.058">
        <ele>68</ele>
        <time>2011-12-10T13:52:58Z</time>
      </trkpt>
      <trkpt lat="46.71274" lon="-1.05718">
        <ele>69</ele>
        <time>2011-12-10T13:53:08Z</time>
      </trkpt>
      <trkpt lat="46.71289" lon="-1.05648">
        <ele>69</ele>
        <time>2011-12-10T13:53:17Z</time>
      </trkpt>
      <trkpt lat="46.71325" lon="-1.05433">
        <ele>70</ele>
        <time>2011-12-10T13:53:43Z</time>
      </trkpt>
      <trkpt lat="46.71358" lon="-1.0534">
        <ele>71</ele>
        <time>2011-12-10T13:53:56Z</time>
      </trkpt>
      <trkpt lat="46.71394" lon="-1.05281">
        <ele>73</ele>
        <time>2011-12-10T13:54:05Z</time>
      </trkpt>
      <trkpt lat="46.71467" lon="-1.0521">
        <ele>74</ele>
        <time>2011-12-10T13:54:21Z</time>
      </trkpt>
      <trkpt lat="46.71525" lon="-1.05142">
        <ele>74</ele>
        <time>2011-12-10T13:54:34Z</time>
      </trkpt>
      <trkpt lat="46.71556" lon="-1.05074">
        <ele>74</ele>
        <time>2011-12-10T13:54:43Z</time>
      </trkpt>
      <trkpt lat="46.71556" lon="-1.05074">
        <ele>74</ele>
        <time>2011-12-10T13:54:43Z</time>
      </trkpt>
      <trkpt lat="46.71588" lon="-1.04993">
        <ele>76</ele>
        <time>2011-12-10T13:54:55Z</time>
      </trkpt>
      <trkpt lat="46.71638" lon="-1.04841">
        <ele>76</ele>
        <time>2011-12-10T13:55:15Z</time>
      </trkpt>
      <trkpt lat="46.71686" lon="-1.04728">
        <ele>77</ele>
        <time>2011-12-10T13:55:31Z</time>
      </trkpt>
      <trkpt lat="46.71726" lon="-1.04524">
        <ele>77</ele>
        <time>2011-12-10T13:55:56Z</time>
      </trkpt>
      <trkpt lat="46.71752" lon="-1.04445">
        <ele>80</ele>
        <time>2011-12-10T13:56:06Z</time>
      </trkpt>
      <trkpt lat="46.71768" lon="-1.04383">
        <ele>80</ele>
        <time>2011-12-10T13:56:14Z</time>
      </trkpt>
      <trkpt lat="46.71778" lon="-1.04315">
        <ele>80</ele>
        <time>2011-12-10T13:56:22Z</time>
      </trkpt>
      <trkpt lat="46.71776" lon="-1.0429">
        <ele>79</ele>
        <time>2011-12-10T13:56:25Z</time>
      </trkpt>
      <trkpt lat="46.71761" lon="-1.0422">
        <ele>79</ele>
        <time>2011-12-10T13:56:34Z</time>
      </trkpt>
      <trkpt lat="46.71763" lon="-1.0419">
        <ele>79</ele>
        <time>2011-12-10T13:56:38Z</time>
      </trkpt>
      <trkpt lat="46.71756" lon="-1.04127">
        <ele>79</ele>
        <time>2011-12-10T13:56:45Z</time>
      </trkpt>
      <trkpt lat="46.71762" lon="-1.04081">
        <ele>81</ele>
        <time>2011-12-10T13:56:51Z</time>
      </trkpt>
      <trkpt lat="46.71808" lon="-1.03936">
        <ele>83</ele>
        <time>2011-12-10T13:57:10Z</time>
      </trkpt>
      <trkpt lat="46.71838" lon="-1.03825">
        <ele>83</ele>
        <time>2011-12-10T13:57:24Z</time>
      </trkpt>
      <trkpt lat="46.71891" lon="-1.0359">
        <ele>82</ele>
        <time>2011-12-10T13:57:54Z</time>
      </trkpt>
      <trkpt lat="46.71949" lon="-1.0336">
        <ele>83</ele>
        <time>2011-12-10T13:58:23Z</time>
      </trkpt>
      <trkpt lat="46.71955" lon="-1.03295">
        <ele>83</ele>
        <time>2011-12-10T13:58:31Z</time>
      </trkpt>
      <trkpt lat="46.71953" lon="-1.03036">
        <ele>81</ele>
        <time>2011-12-10T13:59:02Z</time>
      </trkpt>
      <trkpt lat="46.71953" lon="-1.03036">
        <ele>81</ele>
        <time>2011-12-10T13:59:02Z</time>
      </trkpt>
      <trkpt lat="46.71948" lon="-1.02985">
        <ele>81</ele>
        <time>2011-12-10T13:59:08Z</time>
      </trkpt>
      <trkpt lat="46.71943" lon="-1.02923">
        <ele>83</ele>
        <time>2011-12-10T13:59:15Z</time>
      </trkpt>
      <trkpt lat="46.71947" lon="-1.02737">
        <ele>81</ele>
        <time>2011-12-10T13:59:38Z</time>
      </trkpt>
      <trkpt lat="46.71967" lon="-1.02548">
        <ele>80</ele>
        <time>2011-12-10T14:00:00Z</time>
      </trkpt>
      <trkpt lat="46.71962" lon="-1.02483">
        <ele>80</ele>
        <time>2011-12-10T14:00:08Z</time>
      </trkpt>
      <trkpt lat="46.71949" lon="-1.02415">
        <ele>76</ele>
        <time>2011-12-10T14:00:17Z</time>
      </trkpt>
      <trkpt lat="46.71956" lon="-1.02389">
        <ele>76</ele>
        <time>2011-12-10T14:00:20Z</time>
      </trkpt>
      <trkpt lat="46.71956" lon="-1.02389">
        <ele>76</ele>
        <time>2011-12-10T14:00:20Z</time>
      </trkpt>
      <trkpt lat="46.71977" lon="-1.02324">
        <ele>75</ele>
        <time>2011-12-10T14:00:29Z</time>
      </trkpt>
      <trkpt lat="46.71998" lon="-1.02289">
        <ele>74</ele>
        <time>2011-12-10T14:00:34Z</time>
      </trkpt>
      <trkpt lat="46.72038" lon="-1.0225">
        <ele>74</ele>
        <time>2011-12-10T14:00:43Z</time>
      </trkpt>
      <trkpt lat="46.72092" lon="-1.02215">
        <ele>78</ele>
        <time>2011-12-10T14:00:53Z</time>
      </trkpt>
      <trkpt lat="46.72101" lon="-1.02202">
        <ele>77</ele>
        <time>2011-12-10T14:00:55Z</time>
      </trkpt>
      <trkpt lat="46.72068" lon="-1.0215">
        <ele>77</ele>
        <time>2011-12-10T14:01:03Z</time>
      </trkpt>
      <trkpt lat="46.7204" lon="-1.02093">
        <ele>75</ele>
        <time>2011-12-10T14:01:12Z</time>
      </trkpt>
      <trkpt lat="46.71995" lon="-1.01924">
        <ele>73</ele>
        <time>2011-12-10T14:01:33Z</time>
      </trkpt>
      <trkpt lat="46.71978" lon="-1.0189">
        <ele>73</ele>
        <time>2011-12-10T14:01:38Z</time>
      </trkpt>
      <trkpt lat="46.71773" lon="-1.01768">
        <ele>61</ele>
        <time>2011-12-10T14:02:17Z</time>
      </trkpt>
      <trkpt lat="46.71773" lon="-1.01768">
        <ele>61</ele>
        <time>2011-12-10T14:02:17Z</time>
      </trkpt>
      <trkpt lat="46.71724" lon="-1.0174">
        <ele>61</ele>
        <time>2011-12-10T14:02:26Z</time>
      </trkpt>
      <trkpt lat="46.71704" lon="-1.01737">
        <ele>64</ele>
        <time>2011-12-10T14:02:30Z</time>
      </trkpt>
      <trkpt lat="46.71683" lon="-1.01725">
        <ele>64</ele>
        <time>2011-12-10T14:02:34Z</time>
      </trkpt>
      <trkpt lat="46.71666" lon="-1.01712">
        <ele>64</ele>
        <time>2011-12-10T14:02:37Z</time>
      </trkpt>
      <trkpt lat="46.7166" lon="-1.01702">
        <ele>63</ele>
        <time>2011-12-10T14:02:39Z</time>
      </trkpt>
      <trkpt lat="46.71584" lon="-1.01655">
        <ele>66</ele>
        <time>2011-12-10T14:02:53Z</time>
      </trkpt>
      <trkpt lat="46.71566" lon="-1.01635">
        <ele>66</ele>
        <time>2011-12-10T14:02:57Z</time>
      </trkpt>
      <trkpt lat="46.71546" lon="-1.01594">
        <ele>67</ele>
        <time>2011-12-10T14:03:03Z</time>
      </trkpt>
      <trkpt lat="46.71427" lon="-1.01298">
        <ele>73</ele>
        <time>2011-12-10T14:03:44Z</time>
      </trkpt>
      <trkpt lat="46.71336" lon="-1.01042">
        <ele>75</ele>
        <time>2011-12-10T14:04:18Z</time>
      </trkpt>
      <trkpt lat="46.71292" lon="-1.00949">
        <ele>77</ele>
        <time>2011-12-10T14:04:32Z</time>
      </trkpt>
      <trkpt lat="46.71265" lon="-1.00905">
        <ele>74</ele>
        <time>2011-12-10T14:04:39Z</time>
      </trkpt>
      <trkpt lat="46.71235" lon="-1.00877">
        <ele>74</ele>
        <time>2011-12-10T14:04:45Z</time>
      </trkpt>
      <trkpt lat="46.70971" lon="-1.007">
        <ele>70</ele>
        <time>2011-12-10T14:05:35Z</time>
      </trkpt>
      <trkpt lat="46.70948" lon="-1.00676">
        <ele>71</ele>
        <time>2011-12-10T14:05:40Z</time>
      </trkpt>
      <trkpt lat="46.70935" lon="-1.00641">
        <ele>71</ele>
        <time>2011-12-10T14:05:45Z</time>
      </trkpt>
      <trkpt lat="46.70896" lon="-1.00455">
        <ele>68</ele>
        <time>2011-12-10T14:06:08Z</time>
      </trkpt>
      <trkpt lat="46.70864" lon="-1.00331">
        <ele>68</ele>
        <time>2011-12-10T14:06:24Z</time>
      </trkpt>
      <trkpt lat="46.70848" lon="-1.00177">
        <ele>66</ele>
        <time>2011-12-10T14:06:43Z</time>
      </trkpt>
      <trkpt lat="46.70818" lon="-0.99982">
        <ele>65</ele>
        <time>2011-12-10T14:07:07Z</time>
      </trkpt>
      <trkpt lat="46.70794" lon="-0.99877">
        <ele>64</ele>
        <time>2011-12-10T14:07:20Z</time>
      </trkpt>
      <trkpt lat="46.70772" lon="-0.99677">
        <ele>66</ele>
        <time>2011-12-10T14:07:44Z</time>
      </trkpt>
      <trkpt lat="46.70779" lon="-0.99557">
        <ele>71</ele>
        <time>2011-12-10T14:07:58Z</time>
      </trkpt>
      <trkpt lat="46.70776" lon="-0.9948">
        <ele>72</ele>
        <time>2011-12-10T14:08:08Z</time>
      </trkpt>
      <trkpt lat="46.70753" lon="-0.99403">
        <ele>72</ele>
        <time>2011-12-10T14:08:18Z</time>
      </trkpt>
      <trkpt lat="46.70655" lon="-0.99229">
        <ele>73</ele>
        <time>2011-12-10T14:08:44Z</time>
      </trkpt>
      <trkpt lat="46.70633" lon="-0.99179">
        <ele>73</ele>
        <time>2011-12-10T14:08:52Z</time>
      </trkpt>
      <trkpt lat="46.70614" lon="-0.99113">
        <ele>77</ele>
        <time>2011-12-10T14:09:00Z</time>
      </trkpt>
      <trkpt lat="46.70613" lon="-0.99072">
        <ele>77</ele>
        <time>2011-12-10T14:09:05Z</time>
      </trkpt>
      <trkpt lat="46.70634" lon="-0.98847">
        <ele>84</ele>
        <time>2011-12-10T14:09:32Z</time>
      </trkpt>
      <trkpt lat="46.70634" lon="-0.98847">
        <ele>84</ele>
        <time>2011-12-10T14:09:32Z</time>
      </trkpt>
      <trkpt lat="46.70636" lon="-0.98774">
        <ele>90</ele>
        <time>2011-12-10T14:09:41Z</time>
      </trkpt>
      <trkpt lat="46.70633" lon="-0.98743">
        <ele>90</ele>
        <time>2011-12-10T14:09:45Z</time>
      </trkpt>
      <trkpt lat="46.70651" lon="-0.98744">
        <ele>90</ele>
        <time>2011-12-10T14:09:48Z</time>
      </trkpt>
      <trkpt lat="46.707" lon="-0.98724">
        <ele>90</ele>
        <time>2011-12-10T14:09:57Z</time>
      </trkpt>
      <trkpt lat="46.70753" lon="-0.98698">
        <ele>90</ele>
        <time>2011-12-10T14:10:06Z</time>
      </trkpt>
      <trkpt lat="46.70822" lon="-0.98694">
        <ele>82</ele>
        <time>2011-12-10T14:10:18Z</time>
      </trkpt>
      <trkpt lat="46.70845" lon="-0.98682">
        <ele>82</ele>
        <time>2011-12-10T14:10:23Z</time>
      </trkpt>
      <trkpt lat="46.70904" lon="-0.98597">
        <ele>84</ele>
        <time>2011-12-10T14:10:37Z</time>
      </trkpt>
      <trkpt lat="46.70997" lon="-0.98445">
        <ele>91</ele>
        <time>2011-12-10T14:11:01Z</time>
      </trkpt>
      <trkpt lat="46.71017" lon="-0.98428">
        <ele>91</ele>
        <time>2011-12-10T14:11:05Z</time>
      </trkpt>
      <trkpt lat="46.71059" lon="-0.98406">
        <ele>90</ele>
        <time>2011-12-10T14:11:13Z</time>
      </trkpt>
      <trkpt lat="46.71118" lon="-0.98384">
        <ele>90</ele>
        <time>2011-12-10T14:11:24Z</time>
      </trkpt>
      <trkpt lat="46.71136" lon="-0.98385">
        <ele>88</ele>
        <time>2011-12-10T14:11:27Z</time>
      </trkpt>
      <trkpt lat="46.712" lon="-0.98353">
        <ele>87</ele>
        <time>2011-12-10T14:11:39Z</time>
      </trkpt>
      <trkpt lat="46.71243" lon="-0.98312">
        <ele>84</ele>
        <time>2011-12-10T14:11:48Z</time>
      </trkpt>
      <trkpt lat="46.71281" lon="-0.98289">
        <ele>83</ele>
        <time>2011-12-10T14:11:55Z</time>
      </trkpt>
      <trkpt lat="46.71281" lon="-0.98289">
        <ele>83</ele>
        <time>2011-12-10T14:11:55Z</time>
      </trkpt>
      <trkpt lat="46.71337" lon="-0.9826">
        <ele>85</ele>
        <time>2011-12-10T14:12:05Z</time>
      </trkpt>
      <trkpt lat="46.71445" lon="-0.98232">
        <ele>85</ele>
        <time>2011-12-10T14:12:24Z</time>
      </trkpt>
      <trkpt lat="46.71534" lon="-0.982">
        <ele>87</ele>
        <time>2011-12-10T14:12:40Z</time>
      </trkpt>
      <trkpt lat="46.71562" lon="-0.98174">
        <ele>89</ele>
        <time>2011-12-10T14:12:46Z</time>
      </trkpt>
      <trkpt lat="46.716" lon="-0.9812">
        <ele>88</ele>
        <time>2011-12-10T14:12:55Z</time>
      </trkpt>
      <trkpt lat="46.71683" lon="-0.98024">
        <ele>89</ele>
        <time>2011-12-10T14:13:14Z</time>
      </trkpt>
      <trkpt lat="46.71733" lon="-0.97981">
        <ele>91</ele>
        <time>2011-12-10T14:13:24Z</time>
      </trkpt>
      <trkpt lat="46.7195" lon="-0.97855">
        <ele>96</ele>
        <time>2011-12-10T14:14:04Z</time>
      </trkpt>
      <trkpt lat="46.72047" lon="-0.97821">
        <ele>99</ele>
        <time>2011-12-10T14:14:22Z</time>
      </trkpt>
      <trkpt lat="46.72322" lon="-0.97679">
        <ele>101</ele>
        <time>2011-12-10T14:15:12Z</time>
      </trkpt>
      <trkpt lat="46.72393" lon="-0.97608">
        <ele>100</ele>
        <time>2011-12-10T14:15:27Z</time>
      </trkpt>
      <trkpt lat="46.72458" lon="-0.97519">
        <ele>96</ele>
        <time>2011-12-10T14:15:43Z</time>
      </trkpt>
      <trkpt lat="46.72512" lon="-0.97462">
        <ele>97</ele>
        <time>2011-12-10T14:15:55Z</time>
      </trkpt>
      <trkpt lat="46.72594" lon="-0.97313">
        <ele>99</ele>
        <time>2011-12-10T14:16:17Z</time>
      </trkpt>
      <trkpt lat="46.7266" lon="-0.97218">
        <ele>101</ele>
        <time>2011-12-10T14:16:33Z</time>
      </trkpt>
      <trkpt lat="46.72716" lon="-0.97149">
        <ele>99</ele>
        <time>2011-12-10T14:16:46Z</time>
      </trkpt>
      <trkpt lat="46.72742" lon="-0.97177">
        <ele>99</ele>
        <time>2011-12-10T14:16:52Z</time>
      </trkpt>
      <trkpt lat="46.72742" lon="-0.97177">
        <ele>99</ele>
        <time>2011-12-10T14:16:52Z</time>
      </trkpt>
      <trkpt lat="46.72807" lon="-0.97223">
        <ele>94</ele>
        <time>2011-12-10T14:17:04Z</time>
      </trkpt>
      <trkpt lat="46.7289" lon="-0.97272">
        <ele>93</ele>
        <time>2011-12-10T14:17:20Z</time>
      </trkpt>
      <trkpt lat="46.72913" lon="-0.97278">
        <ele>93</ele>
        <time>2011-12-10T14:17:24Z</time>
      </trkpt>
      <trkpt lat="46.72932" lon="-0.97277">
        <ele>93</ele>
        <time>2011-12-10T14:17:27Z</time>
      </trkpt>
      <trkpt lat="46.72977" lon="-0.97257">
        <ele>95</ele>
        <time>2011-12-10T14:17:36Z</time>
      </trkpt>
      <trkpt lat="46.73034" lon="-0.97237">
        <ele>95</ele>
        <time>2011-12-10T14:17:46Z</time>
      </trkpt>
      <trkpt lat="46.73062" lon="-0.9724">
        <ele>94</ele>
        <time>2011-12-10T14:17:51Z</time>
      </trkpt>
      <trkpt lat="46.73085" lon="-0.97253">
        <ele>94</ele>
        <time>2011-12-10T14:17:55Z</time>
      </trkpt>
      <trkpt lat="46.73161" lon="-0.97261">
        <ele>92</ele>
        <time>2011-12-10T14:18:08Z</time>
      </trkpt>
      <trkpt lat="46.73258" lon="-0.97246">
        <ele>89</ele>
        <time>2011-12-10T14:18:25Z</time>
      </trkpt>
      <trkpt lat="46.73348" lon="-0.97215">
        <ele>90</ele>
        <time>2011-12-10T14:18:41Z</time>
      </trkpt>
      <trkpt lat="46.73481" lon="-0.9713">
        <ele>86</ele>
        <time>2011-12-10T14:19:07Z</time>
      </trkpt>
      <trkpt lat="46.73559" lon="-0.9714">
        <ele>89</ele>
        <time>2011-12-10T14:19:20Z</time>
      </trkpt>
      <trkpt lat="46.73645" lon="-0.97111">
        <ele>83</ele>
        <time>2011-12-10T14:19:36Z</time>
      </trkpt>
      <trkpt lat="46.73675" lon="-0.97106">
        <ele>83</ele>
        <time>2011-12-10T14:19:41Z</time>
      </trkpt>
      <trkpt lat="46.73692" lon="-0.97109">
        <ele>83</ele>
        <time>2011-12-10T14:19:44Z</time>
      </trkpt>
      <trkpt lat="46.73743" lon="-0.97139">
        <ele>83</ele>
        <time>2011-12-10T14:19:53Z</time>
      </trkpt>
      <trkpt lat="46.73813" lon="-0.97151">
        <ele>80</ele>
        <time>2011-12-10T14:20:06Z</time>
      </trkpt>
      <trkpt lat="46.73854" lon="-0.97148">
        <ele>80</ele>
        <time>2011-12-10T14:20:13Z</time>
      </trkpt>
      <trkpt lat="46.73893" lon="-0.97158">
        <ele>86</ele>
        <time>2011-12-10T14:20:20Z</time>
      </trkpt>
      <trkpt lat="46.73898" lon="-0.97173">
        <ele>86</ele>
        <time>2011-12-10T14:20:22Z</time>
      </trkpt>
      <trkpt lat="46.73902" lon="-0.97226">
        <ele>88</ele>
        <time>2011-12-10T14:20:28Z</time>
      </trkpt>
      <trkpt lat="46.73915" lon="-0.97265">
        <ele>88</ele>
        <time>2011-12-10T14:20:33Z</time>
      </trkpt>
      <trkpt lat="46.73968" lon="-0.97327">
        <ele>90</ele>
        <time>2011-12-10T14:20:45Z</time>
      </trkpt>
      <trkpt lat="46.73974" lon="-0.97327">
        <ele>90</ele>
        <time>2011-12-10T14:20:46Z</time>
      </trkpt>
      <trkpt lat="46.73991" lon="-0.97312">
        <ele>90</ele>
        <time>2011-12-10T14:20:50Z</time>
      </trkpt>
      <trkpt lat="46.74023" lon="-0.9724">
        <ele>91</ele>
        <time>2011-12-10T14:21:00Z</time>
      </trkpt>
      <trkpt lat="46.74032" lon="-0.97231">
        <ele>91</ele>
        <time>2011-12-10T14:21:02Z</time>
      </trkpt>
      <trkpt lat="46.74043" lon="-0.97234">
        <ele>94</ele>
        <time>2011-12-10T14:21:04Z</time>
      </trkpt>
      <trkpt lat="46.74124" lon="-0.97292">
        <ele>94</ele>
        <time>2011-12-10T14:21:19Z</time>
      </trkpt>
      <trkpt lat="46.74131" lon="-0.97302">
        <ele>97</ele>
        <time>2011-12-10T14:21:21Z</time>
      </trkpt>
      <trkpt lat="46.74134" lon="-0.97317">
        <ele>97</ele>
        <time>2011-12-10T14:21:23Z</time>
      </trkpt>
      <trkpt lat="46.74132" lon="-0.97356">
        <ele>97</ele>
        <time>2011-12-10T14:21:28Z</time>
      </trkpt>
      <trkpt lat="46.74105" lon="-0.97443">
        <ele>94</ele>
        <time>2011-12-10T14:21:39Z</time>
      </trkpt>
      <trkpt lat="46.74098" lon="-0.97482">
        <ele>94</ele>
        <time>2011-12-10T14:21:44Z</time>
      </trkpt>
      <trkpt lat="46.74124" lon="-0.97608">
        <ele>95</ele>
        <time>2011-12-10T14:21:59Z</time>
      </trkpt>
      <trkpt lat="46.74124" lon="-0.97608">
        <ele>95</ele>
        <time>2011-12-10T14:21:59Z</time>
      </trkpt>
      <trkpt lat="46.74136" lon="-0.97664">
        <ele>97</ele>
        <time>2011-12-10T14:22:06Z</time>
      </trkpt>
      <trkpt lat="46.7413" lon="-0.9767">
        <ele>97</ele>
        <time>2011-12-10T14:22:08Z</time>
      </trkpt>
      <trkpt lat="46.74144" lon="-0.97788">
        <ele>100</ele>
        <time>2011-12-10T14:22:22Z</time>
      </trkpt>
      <trkpt lat="46.74174" lon="-0.97925">
        <ele>102</ele>
        <time>2011-12-10T14:22:39Z</time>
      </trkpt>
      <trkpt lat="46.74253" lon="-0.98139">
        <ele>104</ele>
        <time>2011-12-10T14:23:08Z</time>
      </trkpt>
      <trkpt lat="46.74273" lon="-0.98228">
        <ele>105</ele>
        <time>2011-12-10T14:23:19Z</time>
      </trkpt>
      <trkpt lat="46.74369" lon="-0.9841">
        <ele>104</ele>
        <time>2011-12-10T14:23:47Z</time>
      </trkpt>
      <trkpt lat="46.74489" lon="-0.98664">
        <ele>99</ele>
        <time>2011-12-10T14:24:23Z</time>
      </trkpt>
      <trkpt lat="46.74522" lon="-0.98713">
        <ele>98</ele>
        <time>2011-12-10T14:24:32Z</time>
      </trkpt>
      <trkpt lat="46.74581" lon="-0.98778">
        <ele>98</ele>
        <time>2011-12-10T14:24:45Z</time>
      </trkpt>
      <trkpt lat="46.74613" lon="-0.98829">
        <ele>99</ele>
        <time>2011-12-10T14:24:53Z</time>
      </trkpt>
      <trkpt lat="46.74632" lon="-0.98873">
        <ele>99</ele>
        <time>2011-12-10T14:24:59Z</time>
      </trkpt>
      <trkpt lat="46.74657" lon="-0.98906">
        <ele>101</ele>
        <time>2011-12-10T14:25:05Z</time>
      </trkpt>
      <trkpt lat="46.74833" lon="-0.99051">
        <ele>99</ele>
        <time>2011-12-10T14:25:40Z</time>
      </trkpt>
      <trkpt lat="46.74974" lon="-0.99215">
        <ele>97</ele>
        <time>2011-12-10T14:26:11Z</time>
      </trkpt>
      <trkpt lat="46.75013" lon="-0.99253">
        <ele>97</ele>
        <time>2011-12-10T14:26:20Z</time>
      </trkpt>
      <trkpt lat="46.75035" lon="-0.99268">
        <ele>97</ele>
        <time>2011-12-10T14:26:24Z</time>
      </trkpt>
      <trkpt lat="46.7511" lon="-0.99313">
        <ele>94</ele>
        <time>2011-12-10T14:26:38Z</time>
      </trkpt>
      <trkpt lat="46.7519" lon="-0.99341">
        <ele>93</ele>
        <time>2011-12-10T14:26:52Z</time>
      </trkpt>
      <trkpt lat="46.7523" lon="-0.99339">
        <ele>92</ele>
        <time>2011-12-10T14:26:59Z</time>
      </trkpt>
      <trkpt lat="46.75304" lon="-0.99296">
        <ele>95</ele>
        <time>2011-12-10T14:27:13Z</time>
      </trkpt>
      <trkpt lat="46.75319" lon="-0.99293">
        <ele>95</ele>
        <time>2011-12-10T14:27:16Z</time>
      </trkpt>
      <trkpt lat="46.75337" lon="-0.99297">
        <ele>95</ele>
        <time>2011-12-10T14:27:19Z</time>
      </trkpt>
      <trkpt lat="46.7541" lon="-0.99334">
        <ele>99</ele>
        <time>2011-12-10T14:27:32Z</time>
      </trkpt>
      <trkpt lat="46.75572" lon="-0.99397">
        <ele>98</ele>
        <time>2011-12-10T14:28:01Z</time>
      </trkpt>
      <trkpt lat="46.75645" lon="-0.99437">
        <ele>99</ele>
        <time>2011-12-10T14:28:15Z</time>
      </trkpt>
      <trkpt lat="46.75645" lon="-0.99437">
        <ele>99</ele>
        <time>2011-12-10T14:28:15Z</time>
      </trkpt>
      <trkpt lat="46.75698" lon="-0.99462">
        <ele>100</ele>
        <time>2011-12-10T14:28:25Z</time>
      </trkpt>
      <trkpt lat="46.75786" lon="-0.99486">
        <ele>101</ele>
        <time>2011-12-10T14:28:40Z</time>
      </trkpt>
      <trkpt lat="46.7583" lon="-0.99491">
        <ele>101</ele>
        <time>2011-12-10T14:28:48Z</time>
      </trkpt>
      <trkpt lat="46.75894" lon="-0.99457">
        <ele>102</ele>
        <time>2011-12-10T14:29:00Z</time>
      </trkpt>
      <trkpt lat="46.75966" lon="-0.9941">
        <ele>107</ele>
        <time>2011-12-10T14:29:14Z</time>
      </trkpt>
      <trkpt lat="46.76206" lon="-0.99331">
        <ele>110</ele>
        <time>2011-12-10T14:29:56Z</time>
      </trkpt>
      <trkpt lat="46.76249" lon="-0.99323">
        <ele>110</ele>
        <time>2011-12-10T14:30:04Z</time>
      </trkpt>
      <trkpt lat="46.76347" lon="-0.99321">
        <ele>110</ele>
        <time>2011-12-10T14:30:21Z</time>
      </trkpt>
      <trkpt lat="46.76621" lon="-0.99294">
        <ele>104</ele>
        <time>2011-12-10T14:31:09Z</time>
      </trkpt>
      <trkpt lat="46.76647" lon="-0.99272">
        <ele>102</ele>
        <time>2011-12-10T14:31:14Z</time>
      </trkpt>
      <trkpt lat="46.76658" lon="-0.99254">
        <ele>102</ele>
        <time>2011-12-10T14:31:17Z</time>
      </trkpt>
      <trkpt lat="46.76706" lon="-0.99146">
        <ele>103</ele>
        <time>2011-12-10T14:31:32Z</time>
      </trkpt>
      <trkpt lat="46.76727" lon="-0.99115">
        <ele>102</ele>
        <time>2011-12-10T14:31:37Z</time>
      </trkpt>
      <trkpt lat="46.76765" lon="-0.99067">
        <ele>102</ele>
        <time>2011-12-10T14:31:46Z</time>
      </trkpt>
      <trkpt lat="46.76846" lon="-0.98923">
        <ele>103</ele>
        <time>2011-12-10T14:32:08Z</time>
      </trkpt>
      <trkpt lat="46.76872" lon="-0.9889">
        <ele>103</ele>
        <time>2011-12-10T14:32:14Z</time>
      </trkpt>
      <trkpt lat="46.77015" lon="-0.98807">
        <ele>102</ele>
        <time>2011-12-10T14:32:41Z</time>
      </trkpt>
      <trkpt lat="46.77105" lon="-0.9878">
        <ele>101</ele>
        <time>2011-12-10T14:32:57Z</time>
      </trkpt>
      <trkpt lat="46.77118" lon="-0.98771">
        <ele>101</ele>
        <time>2011-12-10T14:33:00Z</time>
      </trkpt>
      <trkpt lat="46.77134" lon="-0.98749">
        <ele>105</ele>
        <time>2011-12-10T14:33:04Z</time>
      </trkpt>
      <trkpt lat="46.77134" lon="-0.98749">
        <ele>105</ele>
        <time>2011-12-10T14:33:04Z</time>
      </trkpt>
      <trkpt lat="46.77157" lon="-0.98699">
        <ele>107</ele>
        <time>2011-12-10T14:33:11Z</time>
      </trkpt>
      <trkpt lat="46.77169" lon="-0.98682">
        <ele>107</ele>
        <time>2011-12-10T14:33:14Z</time>
      </trkpt>
      <trkpt lat="46.77206" lon="-0.98764">
        <ele>105</ele>
        <time>2011-12-10T14:33:25Z</time>
      </trkpt>
      <trkpt lat="46.77228" lon="-0.98825">
        <ele>110</ele>
        <time>2011-12-10T14:33:34Z</time>
      </trkpt>
      <trkpt lat="46.77236" lon="-0.98836">
        <ele>110</ele>
        <time>2011-12-10T14:33:35Z</time>
      </trkpt>
      <trkpt lat="46.77256" lon="-0.98844">
        <ele>110</ele>
        <time>2011-12-10T14:33:39Z</time>
      </trkpt>
      <trkpt lat="46.77272" lon="-0.98882">
        <ele>108</ele>
        <time>2011-12-10T14:33:44Z</time>
      </trkpt>
      <trkpt lat="46.7729" lon="-0.98912">
        <ele>108</ele>
        <time>2011-12-10T14:33:49Z</time>
      </trkpt>
      <trkpt lat="46.77314" lon="-0.99049">
        <ele>104</ele>
        <time>2011-12-10T14:34:06Z</time>
      </trkpt>
      <trkpt lat="46.77345" lon="-0.99157">
        <ele>103</ele>
        <time>2011-12-10T14:34:20Z</time>
      </trkpt>
      <trkpt lat="46.77349" lon="-0.99243">
        <ele>102</ele>
        <time>2011-12-10T14:34:30Z</time>
      </trkpt>
      <trkpt lat="46.77343" lon="-0.99365">
        <ele>100</ele>
        <time>2011-12-10T14:34:45Z</time>
      </trkpt>
      <trkpt lat="46.77345" lon="-0.99407">
        <ele>99</ele>
        <time>2011-12-10T14:34:50Z</time>
      </trkpt>
      <trkpt lat="46.7737" lon="-0.99558">
        <ele>96</ele>
        <time>2011-12-10T14:35:08Z</time>
      </trkpt>
      <trkpt lat="46.7737" lon="-0.9964">
        <ele>98</ele>
        <time>2011-12-10T14:35:18Z</time>
      </trkpt>
      <trkpt lat="46.7738" lon="-0.99677">
        <ele>101</ele>
        <time>2011-12-10T14:35:23Z</time>
      </trkpt>
      <trkpt lat="46.77402" lon="-0.99734">
        <ele>101</ele>
        <time>2011-12-10T14:35:31Z</time>
      </trkpt>
      <trkpt lat="46.77558" lon="-0.99674">
        <ele>109</ele>
        <time>2011-12-10T14:35:59Z</time>
      </trkpt>
      <trkpt lat="46.77601" lon="-0.99652">
        <ele>109</ele>
        <time>2011-12-10T14:36:07Z</time>
      </trkpt>
      <trkpt lat="46.77601" lon="-0.99652">
        <ele>109</ele>
        <time>2011-12-10T14:36:07Z</time>
      </trkpt>
      <trkpt lat="46.77705" lon="-0.99597">
        <ele>108</ele>
        <time>2011-12-10T14:36:26Z</time>
      </trkpt>
      <trkpt lat="46.779" lon="-0.99532">
        <ele>105</ele>
        <time>2011-12-10T14:37:01Z</time>
      </trkpt>
      <trkpt lat="46.77956" lon="-0.99519">
        <ele>105</ele>
        <time>2011-12-10T14:37:11Z</time>
      </trkpt>
      <trkpt lat="46.77983" lon="-0.99527">
        <ele>112</ele>
        <time>2011-12-10T14:37:15Z</time>
      </trkpt>
      <trkpt lat="46.77992" lon="-0.99535">
        <ele>112</ele>
        <time>2011-12-10T14:37:17Z</time>
      </trkpt>
      <trkpt lat="46.78018" lon="-0.99589">
        <ele>111</ele>
        <time>2011-12-10T14:37:25Z</time>
      </trkpt>
      <trkpt lat="46.78038" lon="-0.99609">
        <ele>111</ele>
        <time>2011-12-10T14:37:29Z</time>
      </trkpt>
      <trkpt lat="46.7805" lon="-0.99614">
        <ele>111</ele>
        <time>2011-12-10T14:37:31Z</time>
      </trkpt>
      <trkpt lat="46.78084" lon="-0.99609">
        <ele>111</ele>
        <time>2011-12-10T14:37:37Z</time>
      </trkpt>
      <trkpt lat="46.78139" lon="-0.99591">
        <ele>108</ele>
        <time>2011-12-10T14:37:47Z</time>
      </trkpt>
      <trkpt lat="46.7822" lon="-0.99583">
        <ele>105</ele>
        <time>2011-12-10T14:38:01Z</time>
      </trkpt>
      <trkpt lat="46.78485" lon="-0.99583">
        <ele>99</ele>
        <time>2011-12-10T14:38:47Z</time>
      </trkpt>
      <trkpt lat="46.78496" lon="-0.9958">
        <ele>99</ele>
        <time>2011-12-10T14:38:49Z</time>
      </trkpt>
      <trkpt lat="46.78568" lon="-0.99534">
        <ele>99</ele>
        <time>2011-12-10T14:39:03Z</time>
      </trkpt>
      <trkpt lat="46.78602" lon="-0.99534">
        <ele>99</ele>
        <time>2011-12-10T14:39:09Z</time>
      </trkpt>
      <trkpt lat="46.78747" lon="-0.9956">
        <ele>97</ele>
        <time>2011-12-10T14:39:34Z</time>
      </trkpt>
      <trkpt lat="46.78786" lon="-0.99561">
        <ele>97</ele>
        <time>2011-12-10T14:39:41Z</time>
      </trkpt>
      <trkpt lat="46.78831" lon="-0.99555">
        <ele>101</ele>
        <time>2011-12-10T14:39:50Z</time>
      </trkpt>
      <trkpt lat="46.78831" lon="-0.99559">
        <ele>101</ele>
        <time>2011-12-10T14:39:50Z</time>
      </trkpt>
      <trkpt lat="46.78831" lon="-0.99559">
        <ele>101</ele>
        <time>2011-12-10T14:39:50Z</time>
      </trkpt>
      <trkpt lat="46.78831" lon="-0.99555">
        <ele>101</ele>
        <time>2011-12-10T14:39:50Z</time>
      </trkpt>
      <trkpt lat="46.78854" lon="-0.99565">
        <ele>101</ele>
        <time>2011-12-10T14:39:54Z</time>
      </trkpt>
      <trkpt lat="46.78907" lon="-0.99654">
        <ele>103</ele>
        <time>2011-12-10T14:40:08Z</time>
      </trkpt>
      <trkpt lat="46.78943" lon="-0.99771">
        <ele>103</ele>
        <time>2011-12-10T14:40:24Z</time>
      </trkpt>
      <trkpt lat="46.78946" lon="-0.99812">
        <ele>103</ele>
        <time>2011-12-10T14:40:29Z</time>
      </trkpt>
      <trkpt lat="46.78988" lon="-0.99831">
        <ele>103</ele>
        <time>2011-12-10T14:40:36Z</time>
      </trkpt>
      <trkpt lat="46.7904" lon="-0.99874">
        <ele>103</ele>
        <time>2011-12-10T14:40:47Z</time>
      </trkpt>
      <trkpt lat="46.79077" lon="-0.99931">
        <ele>100</ele>
        <time>2011-12-10T14:40:56Z</time>
      </trkpt>
      <trkpt lat="46.79134" lon="-1.00001">
        <ele>99</ele>
        <time>2011-12-10T14:41:09Z</time>
      </trkpt>
      <trkpt lat="46.79175" lon="-1.0004">
        <ele>98</ele>
        <time>2011-12-10T14:41:17Z</time>
      </trkpt>
      <trkpt lat="46.7924" lon="-1.00088">
        <ele>95</ele>
        <time>2011-12-10T14:41:30Z</time>
      </trkpt>
      <trkpt lat="46.79284" lon="-1.00159">
        <ele>94</ele>
        <time>2011-12-10T14:41:41Z</time>
      </trkpt>
      <trkpt lat="46.79327" lon="-1.00216">
        <ele>89</ele>
        <time>2011-12-10T14:41:52Z</time>
      </trkpt>
      <trkpt lat="46.79468" lon="-1.00353">
        <ele>96</ele>
        <time>2011-12-10T14:42:21Z</time>
      </trkpt>
      <trkpt lat="46.79493" lon="-1.00383">
        <ele>95</ele>
        <time>2011-12-10T14:42:27Z</time>
      </trkpt>
      <trkpt lat="46.79561" lon="-1.00504">
        <ele>97</ele>
        <time>2011-12-10T14:42:45Z</time>
      </trkpt>
      <trkpt lat="46.7962" lon="-1.00583">
        <ele>96</ele>
        <time>2011-12-10T14:42:59Z</time>
      </trkpt>
      <trkpt lat="46.79632" lon="-1.0061">
        <ele>93</ele>
        <time>2011-12-10T14:43:03Z</time>
      </trkpt>
      <trkpt lat="46.79659" lon="-1.00698">
        <ele>90</ele>
        <time>2011-12-10T14:43:15Z</time>
      </trkpt>
      <trkpt lat="46.79682" lon="-1.00747">
        <ele>86</ele>
        <time>2011-12-10T14:43:22Z</time>
      </trkpt>
      <trkpt lat="46.79818" lon="-1.00991">
        <ele>86</ele>
        <time>2011-12-10T14:43:59Z</time>
      </trkpt>
      <trkpt lat="46.79854" lon="-1.01044">
        <ele>90</ele>
        <time>2011-12-10T14:44:08Z</time>
      </trkpt>
      <trkpt lat="46.79957" lon="-1.01124">
        <ele>93</ele>
        <time>2011-12-10T14:44:28Z</time>
      </trkpt>
      <trkpt lat="46.79978" lon="-1.01132">
        <ele>98</ele>
        <time>2011-12-10T14:44:32Z</time>
      </trkpt>
      <trkpt lat="46.80015" lon="-1.01132">
        <ele>98</ele>
        <time>2011-12-10T14:44:39Z</time>
      </trkpt>
      <trkpt lat="46.80043" lon="-1.01138">
        <ele>98</ele>
        <time>2011-12-10T14:44:44Z</time>
      </trkpt>
      <trkpt lat="46.8008" lon="-1.01159">
        <ele>98</ele>
        <time>2011-12-10T14:44:50Z</time>
      </trkpt>
      <trkpt lat="46.80211" lon="-1.01278">
        <ele>99</ele>
        <time>2011-12-10T14:45:17Z</time>
      </trkpt>
      <trkpt lat="46.80239" lon="-1.01326">
        <ele>98</ele>
        <time>2011-12-10T14:45:25Z</time>
      </trkpt>
      <trkpt lat="46.8032" lon="-1.0152">
        <ele>104</ele>
        <time>2011-12-10T14:45:52Z</time>
      </trkpt>
      <trkpt lat="46.80338" lon="-1.01544">
        <ele>104</ele>
        <time>2011-12-10T14:45:56Z</time>
      </trkpt>
      <trkpt lat="46.80653" lon="-1.01735">
        <ele>111</ele>
        <time>2011-12-10T14:46:55Z</time>
      </trkpt>
      <trkpt lat="46.80683" lon="-1.01763">
        <ele>111</ele>
        <time>2011-12-10T14:47:02Z</time>
      </trkpt>
      <trkpt lat="46.80694" lon="-1.01783">
        <ele>111</ele>
        <time>2011-12-10T14:47:05Z</time>
      </trkpt>
      <trkpt lat="46.80746" lon="-1.01968">
        <ele>111</ele>
        <time>2011-12-10T14:47:29Z</time>
      </trkpt>
      <trkpt lat="46.80767" lon="-1.02017">
        <ele>111</ele>
        <time>2011-12-10T14:47:35Z</time>
      </trkpt>
      <trkpt lat="46.80778" lon="-1.02031">
        <ele>111</ele>
        <time>2011-12-10T14:47:38Z</time>
      </trkpt>
      <trkpt lat="46.80818" lon="-1.02052">
        <ele>115</ele>
        <time>2011-12-10T14:47:45Z</time>
      </trkpt>
      <trkpt lat="46.80836" lon="-1.02069">
        <ele>115</ele>
        <time>2011-12-10T14:47:49Z</time>
      </trkpt>
      <trkpt lat="46.80907" lon="-1.022">
        <ele>116</ele>
        <time>2011-12-10T14:48:09Z</time>
      </trkpt>
      <trkpt lat="46.8093" lon="-1.02215">
        <ele>116</ele>
        <time>2011-12-10T14:48:13Z</time>
      </trkpt>
      <trkpt lat="46.80996" lon="-1.02231">
        <ele>117</ele>
        <time>2011-12-10T14:48:25Z</time>
      </trkpt>
      <trkpt lat="46.81035" lon="-1.02152">
        <ele>119</ele>
        <time>2011-12-10T14:48:37Z</time>
      </trkpt>
      <trkpt lat="46.81035" lon="-1.02152">
        <ele>119</ele>
        <time>2011-12-10T14:48:37Z</time>
      </trkpt>
      <trkpt lat="46.81103" lon="-1.0202">
        <ele>119</ele>
        <time>2011-12-10T14:48:56Z</time>
      </trkpt>
      <trkpt lat="46.81126" lon="-1.01992">
        <ele>120</ele>
        <time>2011-12-10T14:49:02Z</time>
      </trkpt>
      <trkpt lat="46.81152" lon="-1.01973">
        <ele>120</ele>
        <time>2011-12-10T14:49:07Z</time>
      </trkpt>
      <trkpt lat="46.81194" lon="-1.0196">
        <ele>120</ele>
        <time>2011-12-10T14:49:14Z</time>
      </trkpt>
      <trkpt lat="46.81272" lon="-1.01947">
        <ele>117</ele>
        <time>2011-12-10T14:49:28Z</time>
      </trkpt>
      <trkpt lat="46.81355" lon="-1.01943">
        <ele>115</ele>
        <time>2011-12-10T14:49:42Z</time>
      </trkpt>
      <trkpt lat="46.81453" lon="-1.01977">
        <ele>116</ele>
        <time>2011-12-10T14:50:00Z</time>
      </trkpt>
      <trkpt lat="46.81488" lon="-1.01976">
        <ele>117</ele>
        <time>2011-12-10T14:50:06Z</time>
      </trkpt>
      <trkpt lat="46.81525" lon="-1.01949">
        <ele>116</ele>
        <time>2011-12-10T14:50:13Z</time>
      </trkpt>
      <trkpt lat="46.81768" lon="-1.01689">
        <ele>117</ele>
        <time>2011-12-10T14:51:05Z</time>
      </trkpt>
      <trkpt lat="46.82126" lon="-1.01434">
        <ele>123</ele>
        <time>2011-12-10T14:52:15Z</time>
      </trkpt>
      <trkpt lat="46.82192" lon="-1.01391">
        <ele>123</ele>
        <time>2011-12-10T14:52:27Z</time>
      </trkpt>
      <trkpt lat="46.82586" lon="-1.0122">
        <ele>118</ele>
        <time>2011-12-10T14:53:39Z</time>
      </trkpt>
      <trkpt lat="46.82641" lon="-1.01188">
        <ele>118</ele>
        <time>2011-12-10T14:53:49Z</time>
      </trkpt>
      <trkpt lat="46.82681" lon="-1.01146">
        <ele>118</ele>
        <time>2011-12-10T14:53:58Z</time>
      </trkpt>
      <trkpt lat="46.82854" lon="-1.0094">
        <ele>121</ele>
        <time>2011-12-10T14:54:37Z</time>
      </trkpt>
      <trkpt lat="46.82884" lon="-1.00894">
        <ele>123</ele>
        <time>2011-12-10T14:54:44Z</time>
      </trkpt>
      <trkpt lat="46.82994" lon="-1.00682">
        <ele>119</ele>
        <time>2011-12-10T14:55:16Z</time>
      </trkpt>
      <trkpt lat="46.83012" lon="-1.00659">
        <ele>119</ele>
        <time>2011-12-10T14:55:20Z</time>
      </trkpt>
      <trkpt lat="46.83309" lon="-1.00389">
        <ele>127</ele>
        <time>2011-12-10T14:56:21Z</time>
      </trkpt>
      <trkpt lat="46.83313" lon="-1.00379">
        <ele>127</ele>
        <time>2011-12-10T14:56:22Z</time>
      </trkpt>
      <trkpt lat="46.83333" lon="-1.0038">
        <ele>127</ele>
        <time>2011-12-10T14:56:26Z</time>
      </trkpt>
      <trkpt lat="46.83333" lon="-1.0038">
        <ele>127</ele>
        <time>2011-12-10T14:56:26Z</time>
      </trkpt>
      <trkpt lat="46.84448" lon="-1.00466">
        <ele>111</ele>
        <time>2011-12-10T14:59:40Z</time>
      </trkpt>
      <trkpt lat="46.84472" lon="-1.00458">
        <ele>110</ele>
        <time>2011-12-10T14:59:44Z</time>
      </trkpt>
      <trkpt lat="46.84482" lon="-1.00447">
        <ele>110</ele>
        <time>2011-12-10T14:59:46Z</time>
      </trkpt>
      <trkpt lat="46.84491" lon="-1.00447">
        <ele>110</ele>
        <time>2011-12-10T14:59:48Z</time>
      </trkpt>
      <trkpt lat="46.84504" lon="-1.00462">
        <ele>111</ele>
        <time>2011-12-10T14:59:51Z</time>
      </trkpt>
      <trkpt lat="46.84526" lon="-1.00469">
        <ele>111</ele>
        <time>2011-12-10T14:59:55Z</time>
      </trkpt>
      <trkpt lat="46.84587" lon="-1.00465">
        <ele>114</ele>
        <time>2011-12-10T15:00:05Z</time>
      </trkpt>
      <trkpt lat="46.8484" lon="-1.00385">
        <ele>115</ele>
        <time>2011-12-10T15:00:51Z</time>
      </trkpt>
      <trkpt lat="46.84879" lon="-1.00378">
        <ele>114</ele>
        <time>2011-12-10T15:00:57Z</time>
      </trkpt>
      <trkpt lat="46.84957" lon="-1.00379">
        <ele>114</ele>
        <time>2011-12-10T15:01:11Z</time>
      </trkpt>
      <trkpt lat="46.84996" lon="-1.00386">
        <ele>112</ele>
        <time>2011-12-10T15:01:18Z</time>
      </trkpt>
      <trkpt lat="46.85058" lon="-1.00411">
        <ele>108</ele>
        <time>2011-12-10T15:01:29Z</time>
      </trkpt>
      <trkpt lat="46.85071" lon="-1.00412">
        <ele>108</ele>
        <time>2011-12-10T15:01:31Z</time>
      </trkpt>
      <trkpt lat="46.85078" lon="-1.00406">
        <ele>108</ele>
        <time>2011-12-10T15:01:33Z</time>
      </trkpt>
      <trkpt lat="46.85083" lon="-1.00411">
        <ele>108</ele>
        <time>2011-12-10T15:01:34Z</time>
      </trkpt>
      <trkpt lat="46.85083" lon="-1.00417">
        <ele>108</ele>
        <time>2011-12-10T15:01:34Z</time>
      </trkpt>
      <trkpt lat="46.85106" lon="-1.00434">
        <ele>108</ele>
        <time>2011-12-10T15:01:39Z</time>
      </trkpt>
      <trkpt lat="46.85111" lon="-1.00443">
        <ele>108</ele>
        <time>2011-12-10T15:01:40Z</time>
      </trkpt>
      <trkpt lat="46.85265" lon="-1.00555">
        <ele>110</ele>
        <time>2011-12-10T15:02:10Z</time>
      </trkpt>
      <trkpt lat="46.85289" lon="-1.0057">
        <ele>110</ele>
        <time>2011-12-10T15:02:15Z</time>
      </trkpt>
      <trkpt lat="46.85372" lon="-1.00599">
        <ele>109</ele>
        <time>2011-12-10T15:02:30Z</time>
      </trkpt>
      <trkpt lat="46.85483" lon="-1.00653">
        <ele>108</ele>
        <time>2011-12-10T15:02:50Z</time>
      </trkpt>
      <trkpt lat="46.85576" lon="-1.0072">
        <ele>110</ele>
        <time>2011-12-10T15:03:08Z</time>
      </trkpt>
      <trkpt lat="46.85688" lon="-1.00825">
        <ele>111</ele>
        <time>2011-12-10T15:03:31Z</time>
      </trkpt>
      <trkpt lat="46.8582" lon="-1.00904">
        <ele>112</ele>
        <time>2011-12-10T15:03:56Z</time>
      </trkpt>
      <trkpt lat="46.85838" lon="-1.00909">
        <ele>112</ele>
        <time>2011-12-10T15:03:59Z</time>
      </trkpt>
      <trkpt lat="46.85853" lon="-1.00904">
        <ele>112</ele>
        <time>2011-12-10T15:04:02Z</time>
      </trkpt>
      <trkpt lat="46.8586" lon="-1.0091">
        <ele>112</ele>
        <time>2011-12-10T15:04:03Z</time>
      </trkpt>
      <trkpt lat="46.85872" lon="-1.00935">
        <ele>112</ele>
        <time>2011-12-10T15:04:07Z</time>
      </trkpt>
      <trkpt lat="46.8589" lon="-1.00949">
        <ele>113</ele>
        <time>2011-12-10T15:04:10Z</time>
      </trkpt>
      <trkpt lat="46.85948" lon="-1.00974">
        <ele>112</ele>
        <time>2011-12-10T15:04:21Z</time>
      </trkpt>
      <trkpt lat="46.85951" lon="-1.00967">
        <ele>112</ele>
        <time>2011-12-10T15:04:22Z</time>
      </trkpt>
      <trkpt lat="46.85957" lon="-1.00966">
        <ele>112</ele>
        <time>2011-12-10T15:04:23Z</time>
      </trkpt>
      <trkpt lat="46.85958" lon="-1.0098">
        <ele>112</ele>
        <time>2011-12-10T15:04:25Z</time>
      </trkpt>
      <trkpt lat="46.86113" lon="-1.01074">
        <ele>118</ele>
        <time>2011-12-10T15:04:54Z</time>
      </trkpt>
      <trkpt lat="46.86156" lon="-1.01109">
        <ele>117</ele>
        <time>2011-12-10T15:05:02Z</time>
      </trkpt>
      <trkpt lat="46.86179" lon="-1.01134">
        <ele>117</ele>
        <time>2011-12-10T15:05:07Z</time>
      </trkpt>
      <trkpt lat="46.86188" lon="-1.01133">
        <ele>117</ele>
        <time>2011-12-10T15:05:09Z</time>
      </trkpt>
      <trkpt lat="46.86189" lon="-1.01142">
        <ele>117</ele>
        <time>2011-12-10T15:05:10Z</time>
      </trkpt>
      <trkpt lat="46.86199" lon="-1.01144">
        <ele>117</ele>
        <time>2011-12-10T15:05:12Z</time>
      </trkpt>
      <trkpt lat="46.86324" lon="-1.01235">
        <ele>118</ele>
        <time>2011-12-10T15:05:36Z</time>
      </trkpt>
      <trkpt lat="46.86325" lon="-1.01226">
        <ele>118</ele>
        <time>2011-12-10T15:05:37Z</time>
      </trkpt>
      <trkpt lat="46.86334" lon="-1.01218">
        <ele>118</ele>
        <time>2011-12-10T15:05:39Z</time>
      </trkpt>
      <trkpt lat="46.86344" lon="-1.01224">
        <ele>118</ele>
        <time>2011-12-10T15:05:41Z</time>
      </trkpt>
      <trkpt lat="46.86346" lon="-1.0123">
        <ele>118</ele>
        <time>2011-12-10T15:05:42Z</time>
      </trkpt>
      <trkpt lat="46.86359" lon="-1.01214">
        <ele>118</ele>
        <time>2011-12-10T15:05:45Z</time>
      </trkpt>
      <trkpt lat="46.8638" lon="-1.01046">
        <ele>116</ele>
        <time>2011-12-10T15:06:05Z</time>
      </trkpt>
      <trkpt lat="46.86389" lon="-1.01008">
        <ele>116</ele>
        <time>2011-12-10T15:06:10Z</time>
      </trkpt>
      <trkpt lat="46.86389" lon="-1.00997">
        <ele>116</ele>
        <time>2011-12-10T15:06:11Z</time>
      </trkpt>
      <trkpt lat="46.86397" lon="-1.00987">
        <ele>116</ele>
        <time>2011-12-10T15:06:13Z</time>
      </trkpt>
    </trkseg>
  </trk>
</gpx>